<?xml version='1.0' encoding='UTF-8'?><gpx version="1.1" creator="JPX - https://github.com/jenetics/jpx" xmlns="http://www.topografix.com/GPX/1/1"><trk><trkseg><trkpt lat="44.29891386883973" lon="10.836253826540274"><ele>809.3333333333334</ele><time>2026-04-01T15:41:47.998Z</time></trkpt><trkpt lat="44.2989922971845" lon="10.836381039623621"><ele>811.6666666666667</ele><time>2026-04-01T15:41:51.998Z</time></trkpt><trkpt lat="44.29903727797085" lon="10.836443038141525"><ele>814.0</ele><time>2026-04-01T15:41:52.998Z</time></trkpt><trkpt lat="44.299072405035176" lon="10.83655175073093"><ele>816.3333333333334</ele><time>2026-04-01T15:41:54.998Z</time></trkpt><trkpt lat="44.299108519876" lon="10.836640931957211"><ele>818.6666666666667</ele><time>2026-04-01T15:41:57Z</time></trkpt><trkpt lat="44.299163265405" lon="10.836534690187662"><ele>821.0</ele><time>2026-04-01T15:42:10Z</time></trkpt><trkpt lat="44.299194682578026" lon="10.836431422657403"><ele>821.0000000000001</ele><time>2026-04-01T15:42:12.999Z</time></trkpt><trkpt lat="44.29920348595867" lon="10.836295394523539"><ele>821.0</ele><time>2026-04-01T15:42:14.999Z</time></trkpt><trkpt lat="44.29922303396073" lon="10.836171215774893"><ele>821.0</ele><time>2026-04-01T15:42:16.999Z</time></trkpt><trkpt lat="44.29924162121977" lon="10.836060727165052"><ele>821.0</ele><time>2026-04-01T15:42:17.999Z</time></trkpt><trkpt lat="44.29926029871806" lon="10.83595304787825"><ele>821.0000000000001</ele><time>2026-04-01T15:42:18.999Z</time></trkpt><trkpt lat="44.299288205575415" lon="10.835852057588943"><ele>821.0</ele><time>2026-04-01T15:42:19.999Z</time></trkpt><trkpt lat="44.29930952864608" lon="10.8357652515183"><ele>821.5999999999999</ele><time>2026-04-01T15:42:20.999Z</time></trkpt><trkpt lat="44.29935034731234" lon="10.835622378080929"><ele>822.2</ele><time>2026-04-01T15:42:22.999Z</time></trkpt><trkpt lat="44.29937233852123" lon="10.835518463262138"><ele>822.8</ele><time>2026-04-01T15:42:33.998Z</time></trkpt><trkpt lat="44.299402158093486" lon="10.835387482154681"><ele>823.4000000000001</ele><time>2026-04-01T15:42:35.998Z</time></trkpt><trkpt lat="44.29944117904542" lon="10.835273607202048"><ele>824.0</ele><time>2026-04-01T15:42:37.998Z</time></trkpt><trkpt lat="44.29953090825693" lon="10.835307071455148"><ele>824.0000000000001</ele><time>2026-04-01T15:42:46.998Z</time></trkpt><trkpt lat="44.299561580737205" lon="10.835393720422712"><ele>824.0</ele><time>2026-04-01T15:42:49.998Z</time></trkpt><trkpt lat="44.29963077973274" lon="10.835306969284213"><ele>824.0</ele><time>2026-04-01T15:42:52.998Z</time></trkpt><trkpt lat="44.2996760001251" lon="10.835215711576122"><ele>824.0</ele><time>2026-04-01T15:43:02.998Z</time></trkpt><trkpt lat="44.29972404641049" lon="10.835143438923554"><ele>824.0000000000001</ele><time>2026-04-01T15:43:06.997Z</time></trkpt><trkpt lat="44.2997594651307" lon="10.83506091382835"><ele>824.0</ele><time>2026-04-01T15:43:09.997Z</time></trkpt><trkpt lat="44.299791248924876" lon="10.834963774999201"><ele>820.3333333333334</ele><time>2026-04-01T15:43:13.997Z</time></trkpt><trkpt lat="44.29977601078817" lon="10.83486724211704"><ele>816.6666666666667</ele><time>2026-04-01T15:43:17.997Z</time></trkpt><trkpt lat="44.29979257015966" lon="10.834731492885757"><ele>813.0</ele><time>2026-04-01T15:43:21.997Z</time></trkpt><trkpt lat="44.299792892527684" lon="10.834633176796896"><ele>809.3333333333333</ele><time>2026-04-01T15:43:25.997Z</time></trkpt><trkpt lat="44.299814208585786" lon="10.834526823397859"><ele>805.6666666666666</ele><time>2026-04-01T15:43:27.997Z</time></trkpt><trkpt lat="44.299904374982" lon="10.834492894912582"><ele>802.0</ele><time>2026-04-01T15:43:32.997Z</time></trkpt><trkpt lat="44.299930091497714" lon="10.834370681805296"><ele>801.8333333333333</ele><time>2026-04-01T15:43:35.997Z</time></trkpt><trkpt lat="44.299877100225885" lon="10.834296288710794"><ele>801.6666666666666</ele><time>2026-04-01T15:43:37.997Z</time></trkpt><trkpt lat="44.299857088708094" lon="10.834176359419166"><ele>801.5</ele><time>2026-04-01T15:43:39.997Z</time></trkpt><trkpt lat="44.29986704659207" lon="10.834041904725927"><ele>801.3333333333333</ele><time>2026-04-01T15:43:41.997Z</time></trkpt><trkpt lat="44.2998911848414" lon="10.833948988777138"><ele>801.1666666666666</ele><time>2026-04-01T15:43:43.997Z</time></trkpt><trkpt lat="44.29990687242096" lon="10.833811493668819"><ele>801.0</ele><time>2026-04-01T15:43:58.997Z</time></trkpt><trkpt lat="44.299919869077726" lon="10.833722549262"><ele>801.0</ele><time>2026-04-01T15:43:59.997Z</time></trkpt><trkpt lat="44.299940538728805" lon="10.833618960853137"><ele>801.0</ele><time>2026-04-01T15:44:00.997Z</time></trkpt><trkpt lat="44.29997302505926" lon="10.833483960097416"><ele>801.0</ele><time>2026-04-01T15:44:01.998Z</time></trkpt><trkpt lat="44.29999530253272" lon="10.833400662568362"><ele>801.0</ele><time>2026-04-01T15:44:02.998Z</time></trkpt><trkpt lat="44.30001500565686" lon="10.833295842080608"><ele>801.0</ele><time>2026-04-01T15:44:03.998Z</time></trkpt><trkpt lat="44.300057085033416" lon="10.833151781181067"><ele>801.0</ele><time>2026-04-01T15:44:05.998Z</time></trkpt><trkpt lat="44.30011723844059" lon="10.833097670835196"><ele>801.0</ele><time>2026-04-01T15:44:07.999Z</time></trkpt><trkpt lat="44.300176370675715" lon="10.833170105379557"><ele>801.0</ele><time>2026-04-01T15:44:11.999Z</time></trkpt><trkpt lat="44.30018148610588" lon="10.833258995175568"><ele>801.0</ele><time>2026-04-01T15:44:13.999Z</time></trkpt><trkpt lat="44.30022790412928" lon="10.833344738346467"><ele>801.0</ele><time>2026-04-01T15:44:15.999Z</time></trkpt><trkpt lat="44.30034067780285" lon="10.833386093907176"><ele>801.0</ele><time>2026-04-01T15:44:17.999Z</time></trkpt><trkpt lat="44.30042640466287" lon="10.833492560894184"><ele>801.0</ele><time>2026-04-01T15:44:19.999Z</time></trkpt><trkpt lat="44.30045478350417" lon="10.833573798839678"><ele>801.0</ele><time>2026-04-01T15:44:21.999Z</time></trkpt><trkpt lat="44.30045340274476" lon="10.833680045756607"><ele>801.0</ele><time>2026-04-01T15:44:23.999Z</time></trkpt><trkpt lat="44.300350941658046" lon="10.833728934041803"><ele>801.0</ele><time>2026-04-01T15:44:25.999Z</time></trkpt><trkpt lat="44.30024718718203" lon="10.83382513734041"><ele>801.0</ele><time>2026-04-01T15:44:27.999Z</time></trkpt><trkpt lat="44.30020391313093" lon="10.833965798190329"><ele>801.0</ele><time>2026-04-01T15:44:29.999Z</time></trkpt><trkpt lat="44.30019034144941" lon="10.834101921379565"><ele>801.0</ele><time>2026-04-01T15:44:31.999Z</time></trkpt><trkpt lat="44.30020642345266" lon="10.834198156383554"><ele>801.0</ele><time>2026-04-01T15:44:33.999Z</time></trkpt><trkpt lat="44.30026337720609" lon="10.834356231904172"><ele>801.0</ele><time>2026-04-01T15:44:35.999Z</time></trkpt><trkpt lat="44.30030966928041" lon="10.834438588529554"><ele>801.0</ele><time>2026-04-01T15:44:36.999Z</time></trkpt><trkpt lat="44.300375029182746" lon="10.834543434321494"><ele>801.1666666666666</ele><time>2026-04-01T15:44:37.999Z</time></trkpt><trkpt lat="44.300456888296075" lon="10.834669088095247"><ele>801.3333333333333</ele><time>2026-04-01T15:44:39.999Z</time></trkpt><trkpt lat="44.300508113770825" lon="10.834729374333874"><ele>801.5</ele><time>2026-04-01T15:44:40.999Z</time></trkpt><trkpt lat="44.30059525119143" lon="10.834836508852428"><ele>801.6666666666666</ele><time>2026-04-01T15:44:42.999Z</time></trkpt><trkpt lat="44.30064975800316" lon="10.834900011228932"><ele>801.8333333333333</ele><time>2026-04-01T15:44:43.999Z</time></trkpt><trkpt lat="44.30069408934491" lon="10.834967793498256"><ele>802.0</ele><time>2026-04-01T15:44:44.999Z</time></trkpt><trkpt lat="44.300748885740866" lon="10.835080570963596"><ele>799.8333333333333</ele><time>2026-04-01T15:44:46.999Z</time></trkpt><trkpt lat="44.300826820848485" lon="10.835172514039453"><ele>797.6666666666666</ele><time>2026-04-01T15:44:48.999Z</time></trkpt><trkpt lat="44.30090491452416" lon="10.835228171936045"><ele>795.5</ele><time>2026-04-01T15:44:50.999Z</time></trkpt><trkpt lat="44.30096626879154" lon="10.835269934161925"><ele>793.3333333333333</ele><time>2026-04-01T15:45:23.999Z</time></trkpt><trkpt lat="44.3010137179006" lon="10.835343449416666"><ele>791.1666666666666</ele><time>2026-04-01T15:45:25.999Z</time></trkpt><trkpt lat="44.30105982260777" lon="10.835421906524086"><ele>789.0</ele><time>2026-04-01T15:45:27.999Z</time></trkpt><trkpt lat="44.30110984770178" lon="10.835483410380798"><ele>789.0</ele><time>2026-04-01T15:45:29.999Z</time></trkpt><trkpt lat="44.30116865465259" lon="10.835595518238794"><ele>789.0</ele><time>2026-04-01T15:45:31.999Z</time></trkpt><trkpt lat="44.30115757335926" lon="10.83570631751021"><ele>789.0</ele><time>2026-04-01T15:45:33.999Z</time></trkpt><trkpt lat="44.30113708515894" lon="10.835797199186345"><ele>789.0</ele><time>2026-04-01T15:45:35.999Z</time></trkpt><trkpt lat="44.30105313328015" lon="10.835886190700453"><ele>789.0</ele><time>2026-04-01T15:45:38.999Z</time></trkpt><trkpt lat="44.300974916862465" lon="10.835958052332703"><ele>789.0</ele><time>2026-04-01T15:45:40.999Z</time></trkpt><trkpt lat="44.3009290103802" lon="10.83603787960717"><ele>787.3333333333334</ele><time>2026-04-01T15:45:42.999Z</time></trkpt><trkpt lat="44.30091600365662" lon="10.836180799229112"><ele>785.6666666666667</ele><time>2026-04-01T15:45:45.999Z</time></trkpt><trkpt lat="44.30089599176933" lon="10.83629102231602"><ele>784.0</ele><time>2026-04-01T15:45:47.999Z</time></trkpt><trkpt lat="44.30090000059771" lon="10.836391560204087"><ele>782.3333333333334</ele><time>2026-04-01T15:45:50.998Z</time></trkpt><trkpt lat="44.30089703187578" lon="10.836483535030393"><ele>780.6666666666667</ele><time>2026-04-01T15:45:51.998Z</time></trkpt><trkpt lat="44.30091697361391" lon="10.836609871613929"><ele>779.0</ele><time>2026-04-01T15:45:53.998Z</time></trkpt><trkpt lat="44.30095254738661" lon="10.836694636028838"><ele>779.0000000000001</ele><time>2026-04-01T15:45:55.998Z</time></trkpt><trkpt lat="44.300961930278795" lon="10.836798544904997"><ele>779.0</ele><time>2026-04-01T15:45:57.998Z</time></trkpt><trkpt lat="44.300982552701655" lon="10.836896858174192"><ele>779.0</ele><time>2026-04-01T15:46:00.998Z</time></trkpt><trkpt lat="44.30104506693722" lon="10.836965913877123"><ele>779.0</ele><time>2026-04-01T15:46:03.998Z</time></trkpt><trkpt lat="44.301125453054716" lon="10.836982581056459"><ele>779.0000000000001</ele><time>2026-04-01T15:46:05.998Z</time></trkpt><trkpt lat="44.30116911861303" lon="10.837052987759478"><ele>779.0</ele><time>2026-04-01T15:46:08Z</time></trkpt><trkpt lat="44.30126010439057" lon="10.837117835976295"><ele>777.1666666666667</ele><time>2026-04-01T15:46:10Z</time></trkpt><trkpt lat="44.301307886162526" lon="10.83719968365271"><ele>775.3333333333334</ele><time>2026-04-01T15:46:12Z</time></trkpt><trkpt lat="44.30138459598698" lon="10.837261093528593"><ele>773.5</ele><time>2026-04-01T15:46:14Z</time></trkpt><trkpt lat="44.30144245357971" lon="10.8373220270826"><ele>771.6666666666667</ele><time>2026-04-01T15:46:16Z</time></trkpt><trkpt lat="44.301494831368515" lon="10.837390710328512"><ele>769.8333333333334</ele><time>2026-04-01T15:46:18Z</time></trkpt><trkpt lat="44.301546669939604" lon="10.837499129653477"><ele>768.0</ele><time>2026-04-01T15:46:20Z</time></trkpt><trkpt lat="44.30160004485068" lon="10.837581790683753"><ele>763.5999999999999</ele><time>2026-04-01T15:46:22Z</time></trkpt><trkpt lat="44.301682743390224" lon="10.837675844780856"><ele>759.1999999999999</ele><time>2026-04-01T15:46:24Z</time></trkpt><trkpt lat="44.301735870925874" lon="10.837769137409316"><ele>754.8</ele><time>2026-04-01T15:46:26Z</time></trkpt><trkpt lat="44.301818144836815" lon="10.837851305110233"><ele>750.4</ele><time>2026-04-01T15:46:29Z</time></trkpt><trkpt lat="44.30187711463142" lon="10.837945802756327"><ele>746.0</ele><time>2026-04-01T15:46:31Z</time></trkpt><trkpt lat="44.301905852260866" lon="10.838059820938009"><ele>746.0</ele><time>2026-04-01T15:46:33Z</time></trkpt><trkpt lat="44.301940233031225" lon="10.838180822174614"><ele>746.0</ele><time>2026-04-01T15:46:35Z</time></trkpt><trkpt lat="44.30198289569521" lon="10.838264594471083"><ele>746.0</ele><time>2026-04-01T15:46:37Z</time></trkpt><trkpt lat="44.302054303537766" lon="10.838355134549035"><ele>746.0</ele><time>2026-04-01T15:46:39Z</time></trkpt><trkpt lat="44.30215240178238" lon="10.838327529783397"><ele>746.0</ele><time>2026-04-01T15:46:42Z</time></trkpt><trkpt lat="44.30222983288266" lon="10.8383844773139"><ele>743.5</ele><time>2026-04-01T15:46:43.999Z</time></trkpt><trkpt lat="44.302265502862625" lon="10.838492672184653"><ele>741.0</ele><time>2026-04-01T15:46:45.999Z</time></trkpt><trkpt lat="44.302264882223795" lon="10.838596925069412"><ele>738.5</ele><time>2026-04-01T15:46:47.999Z</time></trkpt><trkpt lat="44.30224920477082" lon="10.83874278850362"><ele>736.0</ele><time>2026-04-01T15:46:49.999Z</time></trkpt><trkpt lat="44.30228862157805" lon="10.838841815987184"><ele>733.5</ele><time>2026-04-01T15:46:51.999Z</time></trkpt><trkpt lat="44.30231689244019" lon="10.8389553389771"><ele>731.0</ele><time>2026-04-01T15:46:53.999Z</time></trkpt><trkpt lat="44.30237245841396" lon="10.839115855314914"><ele>731.0</ele><time>2026-04-01T15:46:56.999Z</time></trkpt><trkpt lat="44.302443932625486" lon="10.839126742629785"><ele>731.0</ele><time>2026-04-01T15:46:58.999Z</time></trkpt><trkpt lat="44.302508620420205" lon="10.839196594669364"><ele>731.0</ele><time>2026-04-01T15:47:00.999Z</time></trkpt><trkpt lat="44.30254302483353" lon="10.839332911428054"><ele>731.0</ele><time>2026-04-01T15:47:02.999Z</time></trkpt><trkpt lat="44.30254422774561" lon="10.83945857659176"><ele>731.0</ele><time>2026-04-01T15:47:05.999Z</time></trkpt><trkpt lat="44.30252810115676" lon="10.839556328318846"><ele>731.0</ele><time>2026-04-01T15:47:07.999Z</time></trkpt><trkpt lat="44.3024983004282" lon="10.839660797541134"><ele>730.1666666666666</ele><time>2026-04-01T15:47:09.999Z</time></trkpt><trkpt lat="44.30244069527403" lon="10.839760095384962"><ele>729.3333333333333</ele><time>2026-04-01T15:47:11.999Z</time></trkpt><trkpt lat="44.30237853829752" lon="10.839860673292897"><ele>728.5</ele><time>2026-04-01T15:47:13.999Z</time></trkpt><trkpt lat="44.30238385681121" lon="10.839986500476186"><ele>727.6666666666666</ele><time>2026-04-01T15:47:16.999Z</time></trkpt><trkpt lat="44.30245007933578" lon="10.840032922202077"><ele>726.8333333333334</ele><time>2026-04-01T15:48:41Z</time></trkpt><trkpt lat="44.30250793105045" lon="10.839984465449493"><ele>726.0</ele><time>2026-04-01T15:48:43Z</time></trkpt><trkpt lat="44.3025898102025" lon="10.839867877418577"><ele>725.9999999999999</ele><time>2026-04-01T15:48:44.999Z</time></trkpt><trkpt lat="44.3026682426371" lon="10.839799951797456"><ele>726.0</ele><time>2026-04-01T15:48:46.999Z</time></trkpt><trkpt lat="44.302712900417866" lon="10.83970652327328"><ele>726.0</ele><time>2026-04-01T15:48:48.999Z</time></trkpt><trkpt lat="44.30277496739321" lon="10.839670224732266"><ele>726.0</ele><time>2026-04-01T15:48:51.999Z</time></trkpt><trkpt lat="44.30283933905543" lon="10.839685825354664"><ele>726.0</ele><time>2026-04-01T15:48:53.999Z</time></trkpt><trkpt lat="44.30291110855632" lon="10.839685630716648"><ele>725.9999999999999</ele><time>2026-04-01T15:48:55.999Z</time></trkpt><trkpt lat="44.30297970906232" lon="10.839667892080113"><ele>726.0</ele><time>2026-04-01T15:48:57.999Z</time></trkpt><trkpt lat="44.303066224998645" lon="10.839702228403945"><ele>724.1428571428571</ele><time>2026-04-01T15:49:00.999Z</time></trkpt><trkpt lat="44.303123659732414" lon="10.839812583338029"><ele>722.2857142857142</ele><time>2026-04-01T15:49:03.999Z</time></trkpt><trkpt lat="44.30318286015364" lon="10.839851503625802"><ele>720.4285714285713</ele><time>2026-04-01T15:49:06.999Z</time></trkpt><trkpt lat="44.303240553013026" lon="10.839889160869772"><ele>718.5714285714286</ele><time>2026-04-01T15:49:10.999Z</time></trkpt><trkpt lat="44.30330483215858" lon="10.839915823096328"><ele>716.7142857142858</ele><time>2026-04-01T15:49:13.999Z</time></trkpt><trkpt lat="44.303368670248226" lon="10.839957229572434"><ele>714.8571428571428</ele><time>2026-04-01T15:49:21.999Z</time></trkpt><trkpt lat="44.30343797378656" lon="10.839978803264737"><ele>713.0</ele><time>2026-04-01T15:49:30.999Z</time></trkpt><trkpt lat="44.30348293946484" lon="10.840059056604014"><ele>712.5</ele><time>2026-04-01T15:49:37.999Z</time></trkpt><trkpt lat="44.30353341146247" lon="10.840165771766953"><ele>712.0</ele><time>2026-04-01T15:49:42.999Z</time></trkpt><trkpt lat="44.303569617209284" lon="10.840269024814594"><ele>711.5</ele><time>2026-04-01T15:49:46.999Z</time></trkpt><trkpt lat="44.303560912719675" lon="10.840371486674684"><ele>711.0</ele><time>2026-04-01T15:49:56.998Z</time></trkpt><trkpt lat="44.30353817804281" lon="10.84045537619635"><ele>710.5</ele><time>2026-04-01T15:50:03.998Z</time></trkpt><trkpt lat="44.30355793178092" lon="10.84054987991208"><ele>710.0</ele><time>2026-04-01T15:50:10.998Z</time></trkpt><trkpt lat="44.30359116750542" lon="10.840632945397122"><ele>710.0</ele><time>2026-04-01T15:50:14.998Z</time></trkpt><trkpt lat="44.303660115631466" lon="10.840685436214931"><ele>710.0</ele><time>2026-04-01T15:50:19Z</time></trkpt><trkpt lat="44.30372239604059" lon="10.840748202125805"><ele>710.0</ele><time>2026-04-01T15:50:22Z</time></trkpt><trkpt lat="44.303770869491856" lon="10.840820245858945"><ele>710.0</ele><time>2026-04-01T15:50:25Z</time></trkpt><trkpt lat="44.30384495292187" lon="10.840789008233047"><ele>710.0</ele><time>2026-04-01T15:50:29Z</time></trkpt><trkpt lat="44.30388349012173" lon="10.840706403533387"><ele>710.0</ele><time>2026-04-01T15:50:32Z</time></trkpt><trkpt lat="44.30391057754445" lon="10.840578733793556"><ele>706.0</ele><time>2026-04-01T15:50:36Z</time></trkpt><trkpt lat="44.30393292236122" lon="10.840466236958362"><ele>702.0</ele><time>2026-04-01T15:50:38Z</time></trkpt><trkpt lat="44.303943580404216" lon="10.840356042537213"><ele>698.0</ele><time>2026-04-01T15:50:41Z</time></trkpt><trkpt lat="44.303981122944194" lon="10.84028328178009"><ele>694.0</ele><time>2026-04-01T15:50:42Z</time></trkpt><trkpt lat="44.304028428041235" lon="10.840204199788126"><ele>690.0</ele><time>2026-04-01T15:50:44Z</time></trkpt><trkpt lat="44.304080552758144" lon="10.840103159092592"><ele>686.0</ele><time>2026-04-01T15:50:46.999Z</time></trkpt><trkpt lat="44.304106711473935" lon="10.840021845725422"><ele>686.0</ele><time>2026-04-01T15:50:48.999Z</time></trkpt><trkpt lat="44.30411915122935" lon="10.83993490546172"><ele>686.0</ele><time>2026-04-01T15:50:50.999Z</time></trkpt><trkpt lat="44.30418300090839" lon="10.839879387355637"><ele>686.0</ele><time>2026-04-01T15:50:53.999Z</time></trkpt><trkpt lat="44.304120694767334" lon="10.83979959432458"><ele>686.0</ele><time>2026-04-01T15:50:56.999Z</time></trkpt><trkpt lat="44.30405446604924" lon="10.839755782847961"><ele>686.0</ele><time>2026-04-01T15:50:58.999Z</time></trkpt><trkpt lat="44.304023016321175" lon="10.83963331447129"><ele>686.0</ele><time>2026-04-01T15:51:02.999Z</time></trkpt><trkpt lat="44.30406825829696" lon="10.8395503372348"><ele>686.0</ele><time>2026-04-01T15:51:06.999Z</time></trkpt><trkpt lat="44.30415127829693" lon="10.839560034471088"><ele>686.0</ele><time>2026-04-01T15:51:11.999Z</time></trkpt><trkpt lat="44.30421797672335" lon="10.83957537120355"><ele>686.0</ele><time>2026-04-01T15:51:15.999Z</time></trkpt><trkpt lat="44.30428551927345" lon="10.839588054687084"><ele>686.0</ele><time>2026-04-01T15:51:20.999Z</time></trkpt><trkpt lat="44.30435060333751" lon="10.83960991813642"><ele>686.0</ele><time>2026-04-01T15:51:26.999Z</time></trkpt><trkpt lat="44.30441318527537" lon="10.839638985633975"><ele>686.0</ele><time>2026-04-01T15:51:28.999Z</time></trkpt><trkpt lat="44.3044785037615" lon="10.839686953901884"><ele>686.0</ele><time>2026-04-01T15:51:31.999Z</time></trkpt><trkpt lat="44.30454292242518" lon="10.839728500249787"><ele>686.0</ele><time>2026-04-01T15:51:33.999Z</time></trkpt><trkpt lat="44.30460067933505" lon="10.839663336280005"><ele>686.0</ele><time>2026-04-01T15:51:47.999Z</time></trkpt><trkpt lat="44.30465390376919" lon="10.839599609605832"><ele>686.0</ele><time>2026-04-01T15:51:51.999Z</time></trkpt><trkpt lat="44.30470389490096" lon="10.839541569863135"><ele>686.0</ele><time>2026-04-01T15:51:58.998Z</time></trkpt><trkpt lat="44.30474889558046" lon="10.839450014983587"><ele>686.0</ele><time>2026-04-01T15:52:02.998Z</time></trkpt><trkpt lat="44.30470260970735" lon="10.839377691796534"><ele>686.0</ele><time>2026-04-01T15:52:48Z</time></trkpt><trkpt lat="44.30466299569846" lon="10.839302671133124"><ele>686.0</ele><time>2026-04-01T15:52:53.999Z</time></trkpt><trkpt lat="44.30470821011979" lon="10.839238559554868"><ele>683.8333333333333</ele><time>2026-04-01T15:53:13.999Z</time></trkpt><trkpt lat="44.30479028615084" lon="10.83929262331804"><ele>681.6666666666666</ele><time>2026-04-01T15:53:17.999Z</time></trkpt><trkpt lat="44.30484152531571" lon="10.839360194574212"><ele>679.5</ele><time>2026-04-01T15:53:18.999Z</time></trkpt><trkpt lat="44.30489741631814" lon="10.839426230799162"><ele>677.3333333333334</ele><time>2026-04-01T15:53:21.999Z</time></trkpt><trkpt lat="44.304956535997334" lon="10.839482346871176"><ele>675.1666666666667</ele><time>2026-04-01T15:53:22.999Z</time></trkpt><trkpt lat="44.30500821077928" lon="10.83958731863999"><ele>673.0</ele><time>2026-04-01T15:53:24.999Z</time></trkpt><trkpt lat="44.30507615435764" lon="10.839692442575265"><ele>670.3333333333334</ele><time>2026-04-01T15:53:26.999Z</time></trkpt><trkpt lat="44.305158007419685" lon="10.839739823031712"><ele>667.6666666666667</ele><time>2026-04-01T15:53:28.999Z</time></trkpt><trkpt lat="44.30524795793559" lon="10.839784143835338"><ele>665.0</ele><time>2026-04-01T15:53:30.999Z</time></trkpt><trkpt lat="44.30533211220963" lon="10.839771673128384"><ele>662.3333333333334</ele><time>2026-04-01T15:53:32.999Z</time></trkpt><trkpt lat="44.30541812882416" lon="10.839732629499048"><ele>659.6666666666666</ele><time>2026-04-01T15:53:34.999Z</time></trkpt><trkpt lat="44.30549212987993" lon="10.83970949993582"><ele>657.0</ele><time>2026-04-01T15:53:35.999Z</time></trkpt><trkpt lat="44.30557335335777" lon="10.839701163914743"><ele>656.8</ele><time>2026-04-01T15:53:36.999Z</time></trkpt><trkpt lat="44.30564408014511" lon="10.83967139508328"><ele>656.6</ele><time>2026-04-01T15:53:37.999Z</time></trkpt><trkpt lat="44.305754203980186" lon="10.83962837637875"><ele>656.4</ele><time>2026-04-01T15:53:39.999Z</time></trkpt><trkpt lat="44.30586613898532" lon="10.83959136072986"><ele>656.1999999999999</ele><time>2026-04-01T15:53:41.999Z</time></trkpt><trkpt lat="44.305964343278056" lon="10.839564703476851"><ele>656.0</ele><time>2026-04-01T15:53:43.999Z</time></trkpt><trkpt lat="44.30603916731959" lon="10.839547202858327"><ele>656.0</ele><time>2026-04-01T15:53:45.999Z</time></trkpt><trkpt lat="44.30611545551805" lon="10.83956317487813"><ele>656.0</ele><time>2026-04-01T15:53:47.999Z</time></trkpt><trkpt lat="44.30618335300113" lon="10.839597503455101"><ele>656.0</ele><time>2026-04-01T15:53:49.999Z</time></trkpt><trkpt lat="44.30623983221835" lon="10.839656895158283"><ele>656.0</ele><time>2026-04-01T15:54:09.998Z</time></trkpt><trkpt lat="44.30620311387701" lon="10.839579739504758"><ele>656.0</ele><time>2026-04-01T15:54:21.998Z</time></trkpt><trkpt lat="44.30618859323675" lon="10.839440643409095"><ele>656.0</ele><time>2026-04-01T15:54:23.998Z</time></trkpt><trkpt lat="44.306166742484066" lon="10.839309136696649"><ele>659.0</ele><time>2026-04-01T15:54:25.998Z</time></trkpt><trkpt lat="44.30608752317466" lon="10.839271975088247"><ele>662.0</ele><time>2026-04-01T15:54:27.998Z</time></trkpt><trkpt lat="44.306000945008606" lon="10.83928262236465"><ele>665.0</ele><time>2026-04-01T15:54:29.998Z</time></trkpt><trkpt lat="44.30592186917665" lon="10.839253639580054"><ele>668.0</ele><time>2026-04-01T15:54:32Z</time></trkpt><trkpt lat="44.30582294612013" lon="10.839173429015492"><ele>671.0</ele><time>2026-04-01T15:54:34Z</time></trkpt><trkpt lat="44.305746423573794" lon="10.839130526594579"><ele>674.0</ele><time>2026-04-01T15:54:36Z</time></trkpt><trkpt lat="44.30567782645075" lon="10.839079955642351"><ele>674.0</ele><time>2026-04-01T15:54:38Z</time></trkpt><trkpt lat="44.305596259731566" lon="10.838993968666557"><ele>674.0</ele><time>2026-04-01T15:54:40Z</time></trkpt><trkpt lat="44.30550046625847" lon="10.838949621489606"><ele>674.0</ele><time>2026-04-01T15:54:42Z</time></trkpt><trkpt lat="44.30541988970372" lon="10.838888925910085"><ele>674.0</ele><time>2026-04-01T15:54:44Z</time></trkpt><trkpt lat="44.30537234003525" lon="10.838798182738934"><ele>674.0</ele><time>2026-04-01T15:54:46Z</time></trkpt><trkpt lat="44.30532727635365" lon="10.838688375996549"><ele>673.8333333333333</ele><time>2026-04-01T15:54:48Z</time></trkpt><trkpt lat="44.305314101493636" lon="10.838575617701478"><ele>673.6666666666666</ele><time>2026-04-01T15:54:50Z</time></trkpt><trkpt lat="44.30530490594051" lon="10.838436468224472"><ele>673.5</ele><time>2026-04-01T15:54:52Z</time></trkpt><trkpt lat="44.30530815805726" lon="10.83830407085693"><ele>673.3333333333334</ele><time>2026-04-01T15:54:54Z</time></trkpt><trkpt lat="44.3053236235428" lon="10.838191770626773"><ele>673.1666666666667</ele><time>2026-04-01T15:54:55.999Z</time></trkpt><trkpt lat="44.30533005174474" lon="10.838064840415834"><ele>673.0</ele><time>2026-04-01T15:54:57.999Z</time></trkpt><trkpt lat="44.30530665704478" lon="10.837919098463416"><ele>676.5</ele><time>2026-04-01T15:54:59.999Z</time></trkpt><trkpt lat="44.30525003693903" lon="10.837833932223068"><ele>680.0</ele><time>2026-04-01T15:55:01.999Z</time></trkpt><trkpt lat="44.3051762110884" lon="10.837801637390033"><ele>683.5</ele><time>2026-04-01T15:55:03.999Z</time></trkpt><trkpt lat="44.30511544507363" lon="10.837739015810223"><ele>687.0</ele><time>2026-04-01T15:55:05.999Z</time></trkpt><trkpt lat="44.305059895289354" lon="10.837671724577284"><ele>690.5</ele><time>2026-04-01T15:55:06.999Z</time></trkpt><trkpt lat="44.30495219113709" lon="10.83763136443494"><ele>694.0</ele><time>2026-04-01T15:55:08.999Z</time></trkpt><trkpt lat="44.30487907142435" lon="10.837589214878598"><ele>695.4000000000001</ele><time>2026-04-01T15:55:10.999Z</time></trkpt><trkpt lat="44.30481405051892" lon="10.837458434772953"><ele>696.8</ele><time>2026-04-01T15:55:12.999Z</time></trkpt><trkpt lat="44.304752434909915" lon="10.837337643920781"><ele>698.2</ele><time>2026-04-01T15:55:14.999Z</time></trkpt><trkpt lat="44.30470225170707" lon="10.837205514443372"><ele>699.5999999999999</ele><time>2026-04-01T15:55:16.999Z</time></trkpt><trkpt lat="44.30466061885233" lon="10.837073298905144"><ele>701.0</ele><time>2026-04-01T15:55:18.999Z</time></trkpt><trkpt lat="44.30462065470278" lon="10.83695868264199"><ele>701.0</ele><time>2026-04-01T15:55:20.999Z</time></trkpt><trkpt lat="44.304602949453766" lon="10.836840118874212"><ele>701.0</ele><time>2026-04-01T15:55:22.999Z</time></trkpt><trkpt lat="44.304607647865694" lon="10.836731954722168"><ele>701.0</ele><time>2026-04-01T15:55:24.999Z</time></trkpt><trkpt lat="44.304640501731605" lon="10.836613133700778"><ele>701.0</ele><time>2026-04-01T15:55:26.999Z</time></trkpt><trkpt lat="44.30471954603756" lon="10.836569483575246"><ele>701.0</ele><time>2026-04-01T15:55:28.999Z</time></trkpt><trkpt lat="44.304851597745646" lon="10.836536612819419"><ele>705.1428571428572</ele><time>2026-04-01T15:55:30.999Z</time></trkpt><trkpt lat="44.30491519945892" lon="10.836511270206964"><ele>709.2857142857142</ele><time>2026-04-01T15:55:31.999Z</time></trkpt><trkpt lat="44.30498638649428" lon="10.836492853679546"><ele>713.4285714285714</ele><time>2026-04-01T15:55:32.999Z</time></trkpt><trkpt lat="44.30505367909545" lon="10.83647559098367"><ele>717.5714285714287</ele><time>2026-04-01T15:55:33.999Z</time></trkpt><trkpt lat="44.30512012352129" lon="10.836453719923307"><ele>721.7142857142858</ele><time>2026-04-01T15:55:34.999Z</time></trkpt><trkpt lat="44.305186248654195" lon="10.836426616835256"><ele>725.8571428571429</ele><time>2026-04-01T15:55:35.999Z</time></trkpt><trkpt lat="44.30525726337109" lon="10.836402751486007"><ele>730.0</ele><time>2026-04-01T15:55:36.999Z</time></trkpt><trkpt lat="44.30532903258826" lon="10.836376442759121"><ele>730.0</ele><time>2026-04-01T15:55:37.999Z</time></trkpt><trkpt lat="44.305396697034304" lon="10.836353707579523"><ele>730.0</ele><time>2026-04-01T15:55:38.999Z</time></trkpt><trkpt lat="44.305469478135564" lon="10.836327394689587"><ele>730.0</ele><time>2026-04-01T15:55:39.999Z</time></trkpt><trkpt lat="44.305592329544226" lon="10.836285784788965"><ele>730.0</ele><time>2026-04-01T15:55:41.999Z</time></trkpt><trkpt lat="44.30566058119523" lon="10.836257285926814"><ele>730.0</ele><time>2026-04-01T15:55:42.999Z</time></trkpt><trkpt lat="44.30577488596478" lon="10.836234247595193"><ele>731.0</ele><time>2026-04-01T15:55:44.999Z</time></trkpt><trkpt lat="44.30589643360119" lon="10.836238204958368"><ele>732.0</ele><time>2026-04-01T15:55:46.999Z</time></trkpt><trkpt lat="44.30596598197299" lon="10.836198493852613"><ele>733.0</ele><time>2026-04-01T15:55:47.999Z</time></trkpt><trkpt lat="44.3060468187076" lon="10.836175004941426"><ele>734.0</ele><time>2026-04-01T15:55:48.999Z</time></trkpt><trkpt lat="44.306124224327384" lon="10.836154549554676"><ele>735.0</ele><time>2026-04-01T15:55:49.999Z</time></trkpt><trkpt lat="44.30620559589741" lon="10.83613712133703"><ele>736.0</ele><time>2026-04-01T15:55:50.999Z</time></trkpt><trkpt lat="44.306282837166286" lon="10.836110617009632"><ele>736.0</ele><time>2026-04-01T15:55:51.999Z</time></trkpt><trkpt lat="44.30636385867753" lon="10.836084385406533"><ele>736.0</ele><time>2026-04-01T15:55:52.999Z</time></trkpt><trkpt lat="44.30644104933937" lon="10.836088570421762"><ele>736.0</ele><time>2026-04-01T15:55:53.999Z</time></trkpt><trkpt lat="44.30650791185669" lon="10.836069597334879"><ele>736.0</ele><time>2026-04-01T15:55:54.999Z</time></trkpt><trkpt lat="44.306619843648996" lon="10.836054554716243"><ele>736.0</ele><time>2026-04-01T15:55:56.999Z</time></trkpt><trkpt lat="44.306696118571" lon="10.836003338386039"><ele>736.0</ele><time>2026-04-01T15:55:58.999Z</time></trkpt><trkpt lat="44.306675558910186" lon="10.835910374193816"><ele>739.4</ele><time>2026-04-01T15:55:59.999Z</time></trkpt><trkpt lat="44.30660658613732" lon="10.835750007295438"><ele>742.8</ele><time>2026-04-01T15:56:01.999Z</time></trkpt><trkpt lat="44.30659624507049" lon="10.835638285080174"><ele>746.1999999999999</ele><time>2026-04-01T15:56:02.998Z</time></trkpt><trkpt lat="44.306573615020305" lon="10.83553032493547"><ele>749.5999999999999</ele><time>2026-04-01T15:56:03.998Z</time></trkpt><trkpt lat="44.30657472234206" lon="10.835410289161029"><ele>753.0</ele><time>2026-04-01T15:56:04.998Z</time></trkpt><trkpt lat="44.3065624892405" lon="10.835279859137326"><ele>753.0</ele><time>2026-04-01T15:56:05.998Z</time></trkpt><trkpt lat="44.306532967493304" lon="10.835140683321624"><ele>753.0</ele><time>2026-04-01T15:56:06.998Z</time></trkpt><trkpt lat="44.306510035327" lon="10.835010744640327"><ele>753.0</ele><time>2026-04-01T15:56:07.998Z</time></trkpt><trkpt lat="44.306483399326446" lon="10.834877740035978"><ele>753.0</ele><time>2026-04-01T15:56:08.998Z</time></trkpt><trkpt lat="44.30644928916207" lon="10.834757030867408"><ele>753.0</ele><time>2026-04-01T15:56:09.998Z</time></trkpt><trkpt lat="44.3064141875034" lon="10.834632813140209"><ele>753.6666666666666</ele><time>2026-04-01T15:56:10.998Z</time></trkpt><trkpt lat="44.30637381834057" lon="10.834514395968222"><ele>754.3333333333334</ele><time>2026-04-01T15:56:11.998Z</time></trkpt><trkpt lat="44.30636928400246" lon="10.834394490520443"><ele>755.0</ele><time>2026-04-01T15:56:12.998Z</time></trkpt><trkpt lat="44.30636764695431" lon="10.834283814650835"><ele>755.6666666666667</ele><time>2026-04-01T15:56:13.998Z</time></trkpt><trkpt lat="44.306379828892595" lon="10.834185450351846"><ele>756.3333333333334</ele><time>2026-04-01T15:56:14.998Z</time></trkpt><trkpt lat="44.306391566509895" lon="10.834098695031354"><ele>757.0</ele><time>2026-04-01T15:56:15.998Z</time></trkpt><trkpt lat="44.30642656444334" lon="10.833992894955603"><ele>757.0</ele><time>2026-04-01T15:56:19.998Z</time></trkpt><trkpt lat="44.30627244530892" lon="10.833920088021921"><ele>757.0</ele><time>2026-04-01T15:56:20.998Z</time></trkpt><trkpt lat="44.306172776417675" lon="10.833884366414757"><ele>757.0</ele><time>2026-04-01T15:56:21.998Z</time></trkpt><trkpt lat="44.30605043486672" lon="10.83384208802237"><ele>757.0</ele><time>2026-04-01T15:56:22.998Z</time></trkpt><trkpt lat="44.305906799778185" lon="10.833783967155368"><ele>757.0</ele><time>2026-04-01T15:56:23.998Z</time></trkpt><trkpt lat="44.30573847389971" lon="10.833713755474722"><ele>757.0</ele><time>2026-04-01T15:56:24.998Z</time></trkpt><trkpt lat="44.30555372438649" lon="10.833640026917088"><ele>757.0</ele><time>2026-04-01T15:56:25.998Z</time></trkpt><trkpt lat="44.30536851327014" lon="10.83354498918276"><ele>759.0</ele><time>2026-04-01T15:56:26.998Z</time></trkpt><trkpt lat="44.30518248124648" lon="10.833461037147263"><ele>761.0</ele><time>2026-04-01T15:56:27.998Z</time></trkpt><trkpt lat="44.30502138047278" lon="10.833403657901409"><ele>763.0</ele><time>2026-04-01T15:56:28.998Z</time></trkpt><trkpt lat="44.30488474188491" lon="10.83333492812717"><ele>763.0</ele><time>2026-04-01T15:56:29.998Z</time></trkpt><trkpt lat="44.30474948538363" lon="10.833259970507166"><ele>763.0</ele><time>2026-04-01T15:56:30.998Z</time></trkpt><trkpt lat="44.30462640282315" lon="10.833162387540645"><ele>763.0</ele><time>2026-04-01T15:56:31.998Z</time></trkpt><trkpt lat="44.30451155237827" lon="10.833063434407665"><ele>763.0</ele><time>2026-04-01T15:56:32.998Z</time></trkpt><trkpt lat="44.30441675492541" lon="10.832955502165692"><ele>762.6666666666667</ele><time>2026-04-01T15:56:33.998Z</time></trkpt><trkpt lat="44.3043405595277" lon="10.832840979348957"><ele>762.3333333333334</ele><time>2026-04-01T15:56:34.998Z</time></trkpt><trkpt lat="44.30427151444289" lon="10.832763689539043"><ele>762.0</ele><time>2026-04-01T15:56:36Z</time></trkpt><trkpt lat="44.304230963695666" lon="10.832692678603943"><ele>761.6666666666666</ele><time>2026-04-01T15:56:37Z</time></trkpt><trkpt lat="44.30418505373553" lon="10.832616135844106"><ele>761.3333333333333</ele><time>2026-04-01T15:56:39Z</time></trkpt><trkpt lat="44.30414570527441" lon="10.832544115472105"><ele>761.0</ele><time>2026-04-01T15:56:43Z</time></trkpt><trkpt lat="44.30409731124311" lon="10.832479422943075"><ele>763.1999999999999</ele><time>2026-04-01T15:56:48Z</time></trkpt><trkpt lat="44.30402670527302" lon="10.832369793103593"><ele>765.4</ele><time>2026-04-01T15:57:02.999Z</time></trkpt><trkpt lat="44.30398041214296" lon="10.832300512536069"><ele>767.6</ele><time>2026-04-01T15:57:03.999Z</time></trkpt><trkpt lat="44.30393533277095" lon="10.832233048422637"><ele>769.8</ele><time>2026-04-01T15:57:04.999Z</time></trkpt><trkpt lat="44.30386775995554" lon="10.832149286855305"><ele>772.0</ele><time>2026-04-01T15:57:05.999Z</time></trkpt><trkpt lat="44.30378004460692" lon="10.832032381819673"><ele>774.3333333333333</ele><time>2026-04-01T15:57:06.999Z</time></trkpt><trkpt lat="44.30367595246146" lon="10.8318997554167"><ele>776.6666666666667</ele><time>2026-04-01T15:57:07.999Z</time></trkpt><trkpt lat="44.303550898504085" lon="10.831753600161557"><ele>779.0</ele><time>2026-04-01T15:57:08.999Z</time></trkpt><trkpt lat="44.303425056471596" lon="10.831611746846255"><ele>779.0</ele><time>2026-04-01T15:57:09.999Z</time></trkpt><trkpt lat="44.30330995866803" lon="10.831499965981862"><ele>779.0</ele><time>2026-04-01T15:57:10.999Z</time></trkpt><trkpt lat="44.30317475235994" lon="10.831404537541701"><ele>779.0</ele><time>2026-04-01T15:57:11.999Z</time></trkpt><trkpt lat="44.30302371249337" lon="10.831340927094146"><ele>779.0</ele><time>2026-04-01T15:57:12.999Z</time></trkpt><trkpt lat="44.30283377082579" lon="10.83127893701595"><ele>781.3333333333334</ele><time>2026-04-01T15:57:13.999Z</time></trkpt><trkpt lat="44.30264195740511" lon="10.831180714940325"><ele>783.6666666666667</ele><time>2026-04-01T15:57:14.999Z</time></trkpt><trkpt lat="44.30247799749467" lon="10.831109108712427"><ele>786.0</ele><time>2026-04-01T15:57:15.999Z</time></trkpt><trkpt lat="44.302346605695604" lon="10.831069591003446"><ele>785.5999999999999</ele><time>2026-04-01T15:57:16.999Z</time></trkpt><trkpt lat="44.30223672442911" lon="10.83100258860194"><ele>785.2</ele><time>2026-04-01T15:57:17.999Z</time></trkpt><trkpt lat="44.302163169105796" lon="10.830894130437802"><ele>784.8</ele><time>2026-04-01T15:57:18.999Z</time></trkpt><trkpt lat="44.30210454289267" lon="10.830794711236312"><ele>784.4000000000001</ele><time>2026-04-01T15:57:19.999Z</time></trkpt><trkpt lat="44.302055194188604" lon="10.83068280802757"><ele>784.0</ele><time>2026-04-01T15:57:20.999Z</time></trkpt><trkpt lat="44.30203542623351" lon="10.830545456908805"><ele>784.4000000000001</ele><time>2026-04-01T15:57:21.999Z</time></trkpt><trkpt lat="44.30203035939566" lon="10.830405804146556"><ele>784.8</ele><time>2026-04-01T15:57:22.999Z</time></trkpt><trkpt lat="44.30206057953897" lon="10.83027220851655"><ele>785.2</ele><time>2026-04-01T15:57:23.999Z</time></trkpt><trkpt lat="44.30210920356814" lon="10.830144851521244"><ele>785.5999999999999</ele><time>2026-04-01T15:57:24.999Z</time></trkpt><trkpt lat="44.302179010367524" lon="10.830014058505503"><ele>786.0</ele><time>2026-04-01T15:57:25.999Z</time></trkpt><trkpt lat="44.30227421221322" lon="10.829904500629231"><ele>786.0</ele><time>2026-04-01T15:57:26.999Z</time></trkpt><trkpt lat="44.30238555441477" lon="10.8298095702911"><ele>786.0</ele><time>2026-04-01T15:57:27.999Z</time></trkpt><trkpt lat="44.302505783113276" lon="10.829717043870104"><ele>786.0</ele><time>2026-04-01T15:57:28.999Z</time></trkpt><trkpt lat="44.30261791670431" lon="10.82961556000075"><ele>786.0</ele><time>2026-04-01T15:57:29.999Z</time></trkpt><trkpt lat="44.30271110914101" lon="10.829527447388424"><ele>786.0</ele><time>2026-04-01T15:57:30.999Z</time></trkpt><trkpt lat="44.30279867494628" lon="10.829450939993478"><ele>786.0</ele><time>2026-04-01T15:57:31.999Z</time></trkpt><trkpt lat="44.302878049864816" lon="10.829378391821438"><ele>786.0</ele><time>2026-04-01T15:57:32.999Z</time></trkpt><trkpt lat="44.30294472233518" lon="10.829290963036618"><ele>786.0</ele><time>2026-04-01T15:57:33.999Z</time></trkpt><trkpt lat="44.30298419362239" lon="10.82919837092564"><ele>786.0</ele><time>2026-04-01T15:57:34.999Z</time></trkpt><trkpt lat="44.30298307304566" lon="10.82908668843915"><ele>786.0</ele><time>2026-04-01T15:57:35.999Z</time></trkpt><trkpt lat="44.30295078401555" lon="10.828980510125898"><ele>788.3333333333334</ele><time>2026-04-01T15:57:36.999Z</time></trkpt><trkpt lat="44.30289615589372" lon="10.82888849611831"><ele>790.6666666666667</ele><time>2026-04-01T15:57:37.999Z</time></trkpt><trkpt lat="44.302840280798506" lon="10.828836713981008"><ele>793.0</ele><time>2026-04-01T15:57:38.999Z</time></trkpt><trkpt lat="44.302865127504994" lon="10.828754393505696"><ele>795.3333333333334</ele><time>2026-04-01T15:57:40.999Z</time></trkpt><trkpt lat="44.30291510344366" lon="10.82868623011247"><ele>797.6666666666667</ele><time>2026-04-01T15:57:43.999Z</time></trkpt><trkpt lat="44.30298449448008" lon="10.828585335195081"><ele>800.0</ele><time>2026-04-01T15:57:45.999Z</time></trkpt><trkpt lat="44.303048262226106" lon="10.82849426078245"><ele>797.1666666666667</ele><time>2026-04-01T15:57:47.999Z</time></trkpt><trkpt lat="44.30312861404105" lon="10.82836055790737"><ele>794.3333333333334</ele><time>2026-04-01T15:57:49.999Z</time></trkpt><trkpt lat="44.30317566025427" lon="10.828286860732215"><ele>791.5</ele><time>2026-04-01T15:57:51.999Z</time></trkpt><trkpt lat="44.30317711766704" lon="10.828188658754616"><ele>788.6666666666667</ele><time>2026-04-01T15:59:21Z</time></trkpt><trkpt lat="44.303147031438634" lon="10.82809514390291"><ele>785.8333333333334</ele><time>2026-04-01T15:59:23Z</time></trkpt><trkpt lat="44.30313635829668" lon="10.827979253057554"><ele>783.0</ele><time>2026-04-01T15:59:25Z</time></trkpt><trkpt lat="44.30322490088646" lon="10.82788918236197"><ele>783.0</ele><time>2026-04-01T15:59:26Z</time></trkpt><trkpt lat="44.30322981871879" lon="10.82774512747135"><ele>783.0</ele><time>2026-04-01T15:59:28Z</time></trkpt><trkpt lat="44.30320388745928" lon="10.827621251639709"><ele>783.0</ele><time>2026-04-01T15:59:30Z</time></trkpt><trkpt lat="44.30321448812571" lon="10.827512662156554"><ele>783.0</ele><time>2026-04-01T15:59:32Z</time></trkpt><trkpt lat="44.30320172293891" lon="10.827378422269682"><ele>783.0</ele><time>2026-04-01T15:59:34Z</time></trkpt><trkpt lat="44.30319038317938" lon="10.827207200363356"><ele>781.8</ele><time>2026-04-01T15:59:36Z</time></trkpt><trkpt lat="44.30317155804988" lon="10.8270689043504"><ele>780.5999999999999</ele><time>2026-04-01T15:59:38Z</time></trkpt><trkpt lat="44.30314108349827" lon="10.82695675163034"><ele>779.4000000000001</ele><time>2026-04-01T15:59:40Z</time></trkpt><trkpt lat="44.30314093311583" lon="10.826826093215526"><ele>778.2</ele><time>2026-04-01T15:59:42Z</time></trkpt><trkpt lat="44.303125941555955" lon="10.826705904833405"><ele>777.0</ele><time>2026-04-01T15:59:44Z</time></trkpt><trkpt lat="44.30310087326608" lon="10.826576249394302"><ele>775.3333333333334</ele><time>2026-04-01T15:59:46Z</time></trkpt><trkpt lat="44.30306659342851" lon="10.826451294552832"><ele>773.6666666666666</ele><time>2026-04-01T15:59:48Z</time></trkpt><trkpt lat="44.303071139943206" lon="10.826356786491854"><ele>772.0</ele><time>2026-04-01T15:59:50Z</time></trkpt><trkpt lat="44.30308025806272" lon="10.826250898050356"><ele>770.3333333333333</ele><time>2026-04-01T15:59:52Z</time></trkpt><trkpt lat="44.3030778815655" lon="10.82613019059397"><ele>768.6666666666666</ele><time>2026-04-01T15:59:54Z</time></trkpt><trkpt lat="44.303096080587686" lon="10.826045785647786"><ele>767.0</ele><time>2026-04-01T15:59:56Z</time></trkpt><trkpt lat="44.303142800266066" lon="10.825946450819005"><ele>766.6</ele><time>2026-04-01T15:59:58Z</time></trkpt><trkpt lat="44.30320464065522" lon="10.825862800207078"><ele>766.2</ele><time>2026-04-01T15:59:59.999Z</time></trkpt><trkpt lat="44.30328004032655" lon="10.825731429460733"><ele>765.8</ele><time>2026-04-01T16:00:01.999Z</time></trkpt><trkpt lat="44.30334266237207" lon="10.825644378473365"><ele>765.4</ele><time>2026-04-01T16:00:03.999Z</time></trkpt><trkpt lat="44.30330959107263" lon="10.82551786617743"><ele>765.0</ele><time>2026-04-01T16:00:12.999Z</time></trkpt><trkpt lat="44.303261652336055" lon="10.82539887745557"><ele>765.0</ele><time>2026-04-01T16:00:14.999Z</time></trkpt><trkpt lat="44.30325122595351" lon="10.825290759206643"><ele>765.0</ele><time>2026-04-01T16:00:15.999Z</time></trkpt><trkpt lat="44.303203313530105" lon="10.825145120563151"><ele>765.0</ele><time>2026-04-01T16:00:17.999Z</time></trkpt><trkpt lat="44.30319732776658" lon="10.824972206518346"><ele>765.0</ele><time>2026-04-01T16:00:19.999Z</time></trkpt><trkpt lat="44.30322385206243" lon="10.824798110518017"><ele>765.0</ele><time>2026-04-01T16:00:21.999Z</time></trkpt><trkpt lat="44.30327628711175" lon="10.82467172952208"><ele>765.2</ele><time>2026-04-01T16:00:23.999Z</time></trkpt><trkpt lat="44.30330022613364" lon="10.824538709223507"><ele>765.4</ele><time>2026-04-01T16:00:26.999Z</time></trkpt><trkpt lat="44.303301130621" lon="10.82437301660694"><ele>765.5999999999999</ele><time>2026-04-01T16:00:28.999Z</time></trkpt><trkpt lat="44.303262365610514" lon="10.824273463591659"><ele>765.8</ele><time>2026-04-01T16:00:29.999Z</time></trkpt><trkpt lat="44.30319817694617" lon="10.824122869740961"><ele>766.0</ele><time>2026-04-01T16:00:31.999Z</time></trkpt><trkpt lat="44.303192700545544" lon="10.823970876832243"><ele>768.0</ele><time>2026-04-01T16:00:35.999Z</time></trkpt><trkpt lat="44.30321914696999" lon="10.82386886908015"><ele>770.0</ele><time>2026-04-01T16:00:37.999Z</time></trkpt><trkpt lat="44.30327207682354" lon="10.823772389880283"><ele>772.0</ele><time>2026-04-01T16:00:39.999Z</time></trkpt><trkpt lat="44.30332923518574" lon="10.823648529620884"><ele>774.0</ele><time>2026-04-01T16:00:41.999Z</time></trkpt><trkpt lat="44.303371701270805" lon="10.823582941991047"><ele>775.9999999999999</ele><time>2026-04-01T16:00:42.999Z</time></trkpt><trkpt lat="44.303434194362914" lon="10.823521024065798"><ele>778.0</ele><time>2026-04-01T16:00:44.999Z</time></trkpt><trkpt lat="44.303438722340914" lon="10.823419937136503"><ele>778.0</ele><time>2026-04-01T16:00:46.999Z</time></trkpt><trkpt lat="44.30335505882426" lon="10.82343792950557"><ele>778.0</ele><time>2026-04-01T16:00:49Z</time></trkpt><trkpt lat="44.3032763933661" lon="10.823484112343275"><ele>778.0</ele><time>2026-04-01T16:00:50Z</time></trkpt><trkpt lat="44.303113716871835" lon="10.823458002888923"><ele>778.0</ele><time>2026-04-01T16:00:52Z</time></trkpt><trkpt lat="44.303019509490454" lon="10.823476111827155"><ele>778.0</ele><time>2026-04-01T16:00:54Z</time></trkpt><trkpt lat="44.302960775865486" lon="10.823548513614835"><ele>781.4</ele><time>2026-04-01T16:00:55Z</time></trkpt><trkpt lat="44.30284599428591" lon="10.823634079342126"><ele>784.8</ele><time>2026-04-01T16:00:56Z</time></trkpt><trkpt lat="44.30273961401648" lon="10.823685011662905"><ele>788.2</ele><time>2026-04-01T16:00:57Z</time></trkpt><trkpt lat="44.30266017159506" lon="10.823760011775393"><ele>791.6</ele><time>2026-04-01T16:00:58Z</time></trkpt><trkpt lat="44.302610079525365" lon="10.823831712525827"><ele>795.0</ele><time>2026-04-01T16:00:59Z</time></trkpt><trkpt lat="44.30254885646675" lon="10.823913087246835"><ele>795.0</ele><time>2026-04-01T16:01:01.001Z</time></trkpt><trkpt lat="44.302552302848" lon="10.824038234496376"><ele>795.0</ele><time>2026-04-01T16:01:03Z</time></trkpt><trkpt lat="44.30246752897916" lon="10.824107024613038"><ele>795.0</ele><time>2026-04-01T16:01:05Z</time></trkpt><trkpt lat="44.30240712527766" lon="10.82414249269304"><ele>795.0</ele><time>2026-04-01T16:01:06Z</time></trkpt><trkpt lat="44.30231948308728" lon="10.824168054078566"><ele>795.0</ele><time>2026-04-01T16:01:08Z</time></trkpt><trkpt lat="44.30221348080517" lon="10.824178274635786"><ele>795.0</ele><time>2026-04-01T16:01:10Z</time></trkpt><trkpt lat="44.30210976239862" lon="10.824155418395492"><ele>793.0</ele><time>2026-04-01T16:01:12Z</time></trkpt><trkpt lat="44.302043348597216" lon="10.824126200050976"><ele>791.0</ele><time>2026-04-01T16:01:13Z</time></trkpt><trkpt lat="44.301948818594056" lon="10.824065388130766"><ele>789.0</ele><time>2026-04-01T16:01:15Z</time></trkpt><trkpt lat="44.30185057408893" lon="10.824061085307862"><ele>787.0</ele><time>2026-04-01T16:01:17Z</time></trkpt><trkpt lat="44.301759782020845" lon="10.824061082769294"><ele>785.0</ele><time>2026-04-01T16:01:19Z</time></trkpt><trkpt lat="44.301683521828636" lon="10.824148627991569"><ele>785.0000000000001</ele><time>2026-04-01T16:01:21Z</time></trkpt><trkpt lat="44.30159254253576" lon="10.824258358914495"><ele>785.0</ele><time>2026-04-01T16:01:23Z</time></trkpt><trkpt lat="44.30152501986867" lon="10.824324207877096"><ele>785.0</ele><time>2026-04-01T16:01:24Z</time></trkpt><trkpt lat="44.30146093539347" lon="10.824375197077321"><ele>785.0</ele><time>2026-04-01T16:01:25Z</time></trkpt><trkpt lat="44.30140399493909" lon="10.824427694093096"><ele>785.0000000000001</ele><time>2026-04-01T16:01:26Z</time></trkpt><trkpt lat="44.30132980613027" lon="10.824474419059554"><ele>785.0</ele><time>2026-04-01T16:01:27Z</time></trkpt><trkpt lat="44.3012717391937" lon="10.824511106020504"><ele>784.0000000000001</ele><time>2026-04-01T16:01:28Z</time></trkpt><trkpt lat="44.30121614381001" lon="10.824561548924665"><ele>783.0</ele><time>2026-04-01T16:01:29Z</time></trkpt><trkpt lat="44.30115433135578" lon="10.824635206985429"><ele>782.0</ele><time>2026-04-01T16:01:30Z</time></trkpt><trkpt lat="44.30110469160798" lon="10.824700231298568"><ele>781.0</ele><time>2026-04-01T16:01:31Z</time></trkpt><trkpt lat="44.30105617607643" lon="10.824760589314849"><ele>780.0000000000001</ele><time>2026-04-01T16:01:33Z</time></trkpt><trkpt lat="44.300950636614395" lon="10.8248651993061"><ele>779.0</ele><time>2026-04-01T16:01:42Z</time></trkpt><trkpt lat="44.30087707070944" lon="10.824958467359481"><ele>779.0000000000001</ele><time>2026-04-01T16:01:44Z</time></trkpt><trkpt lat="44.30083101290804" lon="10.825044625577123"><ele>779.0</ele><time>2026-04-01T16:01:46Z</time></trkpt><trkpt lat="44.30079617393897" lon="10.825162958513896"><ele>779.0</ele><time>2026-04-01T16:01:48Z</time></trkpt><trkpt lat="44.30078267332109" lon="10.825269782767336"><ele>779.0</ele><time>2026-04-01T16:01:50Z</time></trkpt><trkpt lat="44.300801879113315" lon="10.825387594258084"><ele>779.0000000000001</ele><time>2026-04-01T16:01:52Z</time></trkpt><trkpt lat="44.30082150595784" lon="10.82550071118061"><ele>779.0</ele><time>2026-04-01T16:01:54Z</time></trkpt><trkpt lat="44.30085547527039" lon="10.8255934020213"><ele>778.8000000000001</ele><time>2026-04-01T16:01:56Z</time></trkpt><trkpt lat="44.30089206076309" lon="10.825688352689202"><ele>778.6</ele><time>2026-04-01T16:02:02.999Z</time></trkpt><trkpt lat="44.30092595289471" lon="10.825781394077676"><ele>778.4</ele><time>2026-04-01T16:02:04.999Z</time></trkpt><trkpt lat="44.30099053933443" lon="10.825892465558383"><ele>778.2</ele><time>2026-04-01T16:02:06.999Z</time></trkpt><trkpt lat="44.30104142909624" lon="10.826026104650795"><ele>778.0</ele><time>2026-04-01T16:02:08.999Z</time></trkpt><trkpt lat="44.30108961226002" lon="10.82616550528269"><ele>778.0</ele><time>2026-04-01T16:02:10.999Z</time></trkpt><trkpt lat="44.30112124430321" lon="10.826285409438613"><ele>778.0</ele><time>2026-04-01T16:02:12.999Z</time></trkpt><trkpt lat="44.30114841416752" lon="10.826421020342242"><ele>778.0</ele><time>2026-04-01T16:02:14.999Z</time></trkpt><trkpt lat="44.30116915165097" lon="10.826519921685382"><ele>778.0</ele><time>2026-04-01T16:02:16.999Z</time></trkpt><trkpt lat="44.3011963292388" lon="10.826647653116886"><ele>778.0</ele><time>2026-04-01T16:02:18.999Z</time></trkpt><trkpt lat="44.30122616474743" lon="10.826774736054022"><ele>780.3333333333333</ele><time>2026-04-01T16:02:20.999Z</time></trkpt><trkpt lat="44.301253258739855" lon="10.826895440799044"><ele>782.6666666666666</ele><time>2026-04-01T16:02:22.999Z</time></trkpt><trkpt lat="44.30128087770396" lon="10.827027220525514"><ele>785.0</ele><time>2026-04-01T16:02:24.999Z</time></trkpt><trkpt lat="44.30129264523466" lon="10.827115606660579"><ele>787.3333333333333</ele><time>2026-04-01T16:02:26.999Z</time></trkpt><trkpt lat="44.30130910437802" lon="10.827213347100471"><ele>789.6666666666666</ele><time>2026-04-01T16:02:47.999Z</time></trkpt><trkpt lat="44.30124484580869" lon="10.827143141355027"><ele>792.0</ele><time>2026-04-01T16:02:52.999Z</time></trkpt><trkpt lat="44.30121745301321" lon="10.827043465606263"><ele>792.0</ele><time>2026-04-01T16:02:55Z</time></trkpt><trkpt lat="44.30118624025556" lon="10.826952418623934"><ele>792.0</ele><time>2026-04-01T16:02:58Z</time></trkpt><trkpt lat="44.301132035267386" lon="10.826895307081404"><ele>792.0</ele><time>2026-04-01T16:03:03Z</time></trkpt><trkpt lat="44.3010929940314" lon="10.8269802993103"><ele>792.0</ele><time>2026-04-01T16:03:06Z</time></trkpt><trkpt lat="44.301148513246225" lon="10.826884508784342"><ele>792.0</ele><time>2026-04-01T16:03:22Z</time></trkpt><trkpt lat="44.301194939900874" lon="10.826973106416382"><ele>792.0</ele><time>2026-04-01T16:03:25Z</time></trkpt><trkpt lat="44.30123684656355" lon="10.827077702917968"><ele>792.0</ele><time>2026-04-01T16:03:27Z</time></trkpt><trkpt lat="44.30127308956147" lon="10.827184024490329"><ele>792.0</ele><time>2026-04-01T16:03:29Z</time></trkpt><trkpt lat="44.3012855223333" lon="10.827069060938852"><ele>792.0</ele><time>2026-04-01T16:03:33Z</time></trkpt><trkpt lat="44.30126242878763" lon="10.826978583401218"><ele>792.0</ele><time>2026-04-01T16:03:35Z</time></trkpt><trkpt lat="44.30122518091654" lon="10.826828118457108"><ele>792.0</ele><time>2026-04-01T16:03:37Z</time></trkpt><trkpt lat="44.30121074927769" lon="10.826737825385807"><ele>792.0</ele><time>2026-04-01T16:03:38Z</time></trkpt><trkpt lat="44.301176259406624" lon="10.826592122787908"><ele>788.5</ele><time>2026-04-01T16:03:40Z</time></trkpt><trkpt lat="44.301145696112535" lon="10.826441235267128"><ele>785.0</ele><time>2026-04-01T16:03:42Z</time></trkpt><trkpt lat="44.30112165407142" lon="10.82633041735441"><ele>781.5</ele><time>2026-04-01T16:03:44Z</time></trkpt><trkpt lat="44.30107577071967" lon="10.826161772271599"><ele>778.0</ele><time>2026-04-01T16:03:46Z</time></trkpt><trkpt lat="44.30101744515738" lon="10.825990626235024"><ele>778.5999999999999</ele><time>2026-04-01T16:03:48Z</time></trkpt><trkpt lat="44.300968051780316" lon="10.825859616088591"><ele>779.1999999999999</ele><time>2026-04-01T16:03:50Z</time></trkpt><trkpt lat="44.30090213843177" lon="10.825748772321443"><ele>779.8</ele><time>2026-04-01T16:03:52Z</time></trkpt><trkpt lat="44.30086081742986" lon="10.825675587090794"><ele>780.4</ele><time>2026-04-01T16:03:53Z</time></trkpt><trkpt lat="44.30083597829378" lon="10.825557950667028"><ele>781.0</ele><time>2026-04-01T16:03:55Z</time></trkpt><trkpt lat="44.30080639479874" lon="10.825441586085168"><ele>781.0</ele><time>2026-04-01T16:03:57Z</time></trkpt><trkpt lat="44.300796433790154" lon="10.825316984337377"><ele>781.0</ele><time>2026-04-01T16:04:00Z</time></trkpt><trkpt lat="44.30079581107938" lon="10.825205977321389"><ele>781.0</ele><time>2026-04-01T16:04:02Z</time></trkpt><trkpt lat="44.300842255381895" lon="10.825081622370693"><ele>781.0</ele><time>2026-04-01T16:04:03.999Z</time></trkpt><trkpt lat="44.30089116485903" lon="10.824968894055734"><ele>781.0</ele><time>2026-04-01T16:04:05.999Z</time></trkpt><trkpt lat="44.300958678683564" lon="10.824882592593763"><ele>780.6666666666666</ele><time>2026-04-01T16:04:07.999Z</time></trkpt><trkpt lat="44.301035235131906" lon="10.824802878909246"><ele>780.3333333333333</ele><time>2026-04-01T16:04:09.999Z</time></trkpt><trkpt lat="44.30108942699668" lon="10.824748974955336"><ele>780.0</ele><time>2026-04-01T16:04:11.999Z</time></trkpt><trkpt lat="44.301019005035656" lon="10.82473746461334"><ele>779.6666666666667</ele><time>2026-04-01T16:04:27.999Z</time></trkpt><trkpt lat="44.30095409867464" lon="10.824770479953756"><ele>779.3333333333334</ele><time>2026-04-01T16:04:29.999Z</time></trkpt><trkpt lat="44.30088578214355" lon="10.82480278496891"><ele>779.0</ele><time>2026-04-01T16:04:31.999Z</time></trkpt><trkpt lat="44.30081202805747" lon="10.824861343765464"><ele>779.0000000000001</ele><time>2026-04-01T16:04:34.999Z</time></trkpt><trkpt lat="44.3007501583473" lon="10.824937590186284"><ele>779.0</ele><time>2026-04-01T16:04:36.999Z</time></trkpt><trkpt lat="44.30069154243186" lon="10.825027127106985"><ele>779.0</ele><time>2026-04-01T16:04:39.999Z</time></trkpt><trkpt lat="44.300639713159775" lon="10.825112974174688"><ele>779.0</ele><time>2026-04-01T16:04:41.999Z</time></trkpt><trkpt lat="44.30058725561054" lon="10.825227425919373"><ele>779.0000000000001</ele><time>2026-04-01T16:04:44.999Z</time></trkpt><trkpt lat="44.300559853723335" lon="10.825315360172917"><ele>779.0</ele><time>2026-04-01T16:04:46.999Z</time></trkpt><trkpt lat="44.300529192726074" lon="10.825398052190662"><ele>776.8333333333334</ele><time>2026-04-01T16:04:49.999Z</time></trkpt><trkpt lat="44.30050985200276" lon="10.825521020190193"><ele>774.6666666666667</ele><time>2026-04-01T16:04:51.999Z</time></trkpt><trkpt lat="44.3004970785759" lon="10.825620795292359"><ele>772.5</ele><time>2026-04-01T16:04:53.999Z</time></trkpt><trkpt lat="44.30049773512873" lon="10.825717235190046"><ele>770.3333333333334</ele><time>2026-04-01T16:04:55.999Z</time></trkpt><trkpt lat="44.30049489106452" lon="10.825836534150373"><ele>768.1666666666667</ele><time>2026-04-01T16:04:57.999Z</time></trkpt><trkpt lat="44.30048735451948" lon="10.8259600390831"><ele>766.0</ele><time>2026-04-01T16:05:01Z</time></trkpt><trkpt lat="44.3004747929964" lon="10.826067088677862"><ele>766.0</ele><time>2026-04-01T16:05:03Z</time></trkpt><trkpt lat="44.300414104845665" lon="10.826153317391096"><ele>766.0</ele><time>2026-04-01T16:05:06Z</time></trkpt><trkpt lat="44.300343235937135" lon="10.826181691335693"><ele>766.0</ele><time>2026-04-01T16:05:09Z</time></trkpt><trkpt lat="44.30028954725566" lon="10.826126736533405"><ele>766.0</ele><time>2026-04-01T16:05:12Z</time></trkpt><trkpt lat="44.30019023346867" lon="10.82609572189931"><ele>766.0</ele><time>2026-04-01T16:05:15Z</time></trkpt><trkpt lat="44.3000885695378" lon="10.826109248009425"><ele>766.0</ele><time>2026-04-01T16:05:17Z</time></trkpt><trkpt lat="44.30003384444594" lon="10.826183436695706"><ele>766.0</ele><time>2026-04-01T16:05:19Z</time></trkpt><trkpt lat="44.30003124745416" lon="10.826309940254124"><ele>766.0</ele><time>2026-04-01T16:05:21Z</time></trkpt><trkpt lat="44.29998956527925" lon="10.826411611578147"><ele>766.0</ele><time>2026-04-01T16:05:23Z</time></trkpt><trkpt lat="44.29992782387119" lon="10.826476070585809"><ele>766.0</ele><time>2026-04-01T16:05:46Z</time></trkpt><trkpt lat="44.29984787550117" lon="10.826527777800905"><ele>766.0</ele><time>2026-04-01T16:05:48Z</time></trkpt><trkpt lat="44.299771483171035" lon="10.826509534398987"><ele>766.0</ele><time>2026-04-01T16:05:50Z</time></trkpt><trkpt lat="44.2996124212661" lon="10.826569697105151"><ele>768.6666666666667</ele><time>2026-04-01T16:05:53Z</time></trkpt><trkpt lat="44.29953065068402" lon="10.82663374348055"><ele>771.3333333333334</ele><time>2026-04-01T16:05:55Z</time></trkpt><trkpt lat="44.29942783366455" lon="10.826670559252886"><ele>774.0</ele><time>2026-04-01T16:05:58Z</time></trkpt><trkpt lat="44.29935400633655" lon="10.826673614670296"><ele>776.6666666666667</ele><time>2026-04-01T16:06:00Z</time></trkpt><trkpt lat="44.299282207102934" lon="10.826640941533844"><ele>779.3333333333334</ele><time>2026-04-01T16:06:03Z</time></trkpt><trkpt lat="44.299260616458106" lon="10.826525842646038"><ele>782.0</ele><time>2026-04-01T16:06:04.999Z</time></trkpt><trkpt lat="44.29925659169125" lon="10.82637906619385"><ele>782.0</ele><time>2026-04-01T16:06:06.999Z</time></trkpt><trkpt lat="44.29928193416123" lon="10.826241659936192"><ele>782.0</ele><time>2026-04-01T16:06:08.999Z</time></trkpt><trkpt lat="44.299318623062696" lon="10.826112406534964"><ele>782.0</ele><time>2026-04-01T16:06:10.999Z</time></trkpt><trkpt lat="44.29933369374808" lon="10.82601420374631"><ele>782.0</ele><time>2026-04-01T16:06:12.999Z</time></trkpt><trkpt lat="44.29926081914612" lon="10.825980031997656"><ele>782.0</ele><time>2026-04-01T16:06:14.999Z</time></trkpt><trkpt lat="44.29916483877998" lon="10.82591821053596"><ele>781.6666666666667</ele><time>2026-04-01T16:06:16.999Z</time></trkpt><trkpt lat="44.29911663009899" lon="10.825860587169114"><ele>781.3333333333334</ele><time>2026-04-01T16:06:17.999Z</time></trkpt><trkpt lat="44.29903919840933" lon="10.825789190099986"><ele>781.0</ele><time>2026-04-01T16:06:19.999Z</time></trkpt><trkpt lat="44.298971934331654" lon="10.82571666122872"><ele>780.6666666666667</ele><time>2026-04-01T16:06:21.999Z</time></trkpt><trkpt lat="44.29888113094265" lon="10.825649108902738"><ele>780.3333333333334</ele><time>2026-04-01T16:06:23.999Z</time></trkpt><trkpt lat="44.298818073891795" lon="10.825588829098104"><ele>780.0</ele><time>2026-04-01T16:06:25.999Z</time></trkpt><trkpt lat="44.29877081257119" lon="10.825522982897182"><ele>780.0</ele><time>2026-04-01T16:06:27.999Z</time></trkpt><trkpt lat="44.29870212215076" lon="10.825463468917725"><ele>780.0</ele><time>2026-04-01T16:06:29.999Z</time></trkpt><trkpt lat="44.29863263428463" lon="10.82541913217066"><ele>780.0</ele><time>2026-04-01T16:06:31.999Z</time></trkpt><trkpt lat="44.29852759375448" lon="10.825353989126413"><ele>780.0</ele><time>2026-04-01T16:06:33.999Z</time></trkpt><trkpt lat="44.29844263288702" lon="10.825346062382343"><ele>780.0</ele><time>2026-04-01T16:06:35.999Z</time></trkpt><trkpt lat="44.29837228352108" lon="10.825319770937336"><ele>780.0</ele><time>2026-04-01T16:06:39.999Z</time></trkpt><trkpt lat="44.29829060027979" lon="10.825301581312685"><ele>780.0</ele><time>2026-04-01T16:06:41.999Z</time></trkpt><trkpt lat="44.29822653915624" lon="10.825294677962713"><ele>780.0</ele><time>2026-04-01T16:06:42.999Z</time></trkpt><trkpt lat="44.2981229079331" lon="10.825296522974076"><ele>780.0</ele><time>2026-04-01T16:06:44.999Z</time></trkpt><trkpt lat="44.29805545250185" lon="10.825323033614083"><ele>780.0</ele><time>2026-04-01T16:06:46.999Z</time></trkpt><trkpt lat="44.29795821205127" lon="10.825366291950209"><ele>780.0</ele><time>2026-04-01T16:06:48.999Z</time></trkpt><trkpt lat="44.297842547859595" lon="10.82537395277234"><ele>779.5</ele><time>2026-04-01T16:07:07Z</time></trkpt><trkpt lat="44.29775832574571" lon="10.825435810806582"><ele>779.0</ele><time>2026-04-01T16:07:09Z</time></trkpt><trkpt lat="44.297726804292836" lon="10.825547023247333"><ele>778.5</ele><time>2026-04-01T16:07:11Z</time></trkpt><trkpt lat="44.29766221529065" lon="10.82558905478125"><ele>778.0</ele><time>2026-04-01T16:07:14Z</time></trkpt><trkpt lat="44.297605679050406" lon="10.825492112139775"><ele>777.5</ele><time>2026-04-01T16:07:17Z</time></trkpt><trkpt lat="44.29751416298516" lon="10.825442491994584"><ele>777.0</ele><time>2026-04-01T16:07:19Z</time></trkpt><trkpt lat="44.29742660018552" lon="10.825400790236761"><ele>777.0</ele><time>2026-04-01T16:07:21Z</time></trkpt><trkpt lat="44.29733075144973" lon="10.825376554743102"><ele>777.0</ele><time>2026-04-01T16:07:23Z</time></trkpt><trkpt lat="44.29724557105437" lon="10.825323704942306"><ele>777.0</ele><time>2026-04-01T16:07:25Z</time></trkpt><trkpt lat="44.29716642394278" lon="10.825270136419274"><ele>777.0</ele><time>2026-04-01T16:07:27Z</time></trkpt><trkpt lat="44.297079341624496" lon="10.825228661754776"><ele>777.0</ele><time>2026-04-01T16:07:29Z</time></trkpt><trkpt lat="44.29700376664212" lon="10.825195798591"><ele>777.4000000000001</ele><time>2026-04-01T16:07:31Z</time></trkpt><trkpt lat="44.29691814878469" lon="10.825222564930062"><ele>777.8000000000001</ele><time>2026-04-01T16:07:33Z</time></trkpt><trkpt lat="44.29685362304112" lon="10.825299293596057"><ele>778.2</ele><time>2026-04-01T16:07:35Z</time></trkpt><trkpt lat="44.296805233841674" lon="10.825365298831484"><ele>778.6</ele><time>2026-04-01T16:07:37Z</time></trkpt><trkpt lat="44.296744403642535" lon="10.825431079922907"><ele>779.0</ele><time>2026-04-01T16:07:39Z</time></trkpt><trkpt lat="44.29660486171092" lon="10.825474219752323"><ele>779.0000000000001</ele><time>2026-04-01T16:07:41Z</time></trkpt><trkpt lat="44.29652585444409" lon="10.825490176630467"><ele>779.0</ele><time>2026-04-01T16:07:42Z</time></trkpt><trkpt lat="44.2964482520273" lon="10.825513101257442"><ele>779.0</ele><time>2026-04-01T16:07:43Z</time></trkpt><trkpt lat="44.29637599865936" lon="10.825572779349807"><ele>779.0</ele><time>2026-04-01T16:07:44Z</time></trkpt><trkpt lat="44.296299662034606" lon="10.825643336574181"><ele>779.0000000000001</ele><time>2026-04-01T16:07:45Z</time></trkpt><trkpt lat="44.29621390963712" lon="10.825697367330124"><ele>779.0</ele><time>2026-04-01T16:07:46Z</time></trkpt><trkpt lat="44.29611788381978" lon="10.825721921049677"><ele>778.3333333333334</ele><time>2026-04-01T16:07:47Z</time></trkpt><trkpt lat="44.296033842011425" lon="10.825736036498059"><ele>777.6666666666667</ele><time>2026-04-01T16:07:48Z</time></trkpt><trkpt lat="44.29592071719" lon="10.825757314279933"><ele>777.0</ele><time>2026-04-01T16:07:49Z</time></trkpt><trkpt lat="44.295856124449145" lon="10.825772319892305"><ele>776.3333333333333</ele><time>2026-04-01T16:07:50Z</time></trkpt><trkpt lat="44.29577540208997" lon="10.82578795383795"><ele>775.6666666666666</ele><time>2026-04-01T16:07:51Z</time></trkpt><trkpt lat="44.29569202705807" lon="10.825818704922717"><ele>775.0</ele><time>2026-04-01T16:07:52Z</time></trkpt><trkpt lat="44.29561160502933" lon="10.82585015830654"><ele>775.1666666666666</ele><time>2026-04-01T16:07:53Z</time></trkpt><trkpt lat="44.29554236703829" lon="10.825832604139322"><ele>775.3333333333333</ele><time>2026-04-01T16:07:54Z</time></trkpt><trkpt lat="44.295477227983035" lon="10.825793905845504"><ele>775.5</ele><time>2026-04-01T16:07:55Z</time></trkpt><trkpt lat="44.2953965368508" lon="10.825750930173022"><ele>775.6666666666667</ele><time>2026-04-01T16:07:56Z</time></trkpt><trkpt lat="44.29530056575016" lon="10.82569154166997"><ele>775.8333333333334</ele><time>2026-04-01T16:07:57Z</time></trkpt><trkpt lat="44.29521388445187" lon="10.825632256688808"><ele>776.0</ele><time>2026-04-01T16:07:58Z</time></trkpt><trkpt lat="44.29510745223799" lon="10.825713186027379"><ele>776.0</ele><time>2026-04-01T16:07:59Z</time></trkpt><trkpt lat="44.29502377835469" lon="10.825675358928653"><ele>776.0</ele><time>2026-04-01T16:08:02Z</time></trkpt><trkpt lat="44.29492962138194" lon="10.825742927078188"><ele>776.0</ele><time>2026-04-01T16:08:04Z</time></trkpt><trkpt lat="44.29483770600148" lon="10.825760313413964"><ele>776.0</ele><time>2026-04-01T16:08:05Z</time></trkpt><trkpt lat="44.29472326728098" lon="10.825784502564163"><ele>776.0</ele><time>2026-04-01T16:08:06Z</time></trkpt><trkpt lat="44.29460502372311" lon="10.825809495939941"><ele>774.5999999999999</ele><time>2026-04-01T16:08:07Z</time></trkpt><trkpt lat="44.2944995943682" lon="10.82583195062287"><ele>773.2</ele><time>2026-04-01T16:08:08Z</time></trkpt><trkpt lat="44.29438882481525" lon="10.825856781958139"><ele>771.8</ele><time>2026-04-01T16:08:09Z</time></trkpt><trkpt lat="44.294289092571866" lon="10.825892257760744"><ele>770.4000000000001</ele><time>2026-04-01T16:08:10Z</time></trkpt><trkpt lat="44.29419924280877" lon="10.825959629712736"><ele>769.0</ele><time>2026-04-01T16:08:11Z</time></trkpt><trkpt lat="44.29412259824424" lon="10.826031266222659"><ele>769.8000000000001</ele><time>2026-04-01T16:08:11.999Z</time></trkpt><trkpt lat="44.29404243318998" lon="10.826103963837685"><ele>770.6</ele><time>2026-04-01T16:08:12.999Z</time></trkpt><trkpt lat="44.29396507994163" lon="10.826164823233638"><ele>771.4</ele><time>2026-04-01T16:08:13.999Z</time></trkpt><trkpt lat="44.29388051423561" lon="10.826213966190878"><ele>772.2</ele><time>2026-04-01T16:08:14.999Z</time></trkpt><trkpt lat="44.29376767310821" lon="10.826251726618846"><ele>773.0</ele><time>2026-04-01T16:08:15.999Z</time></trkpt><trkpt lat="44.29365752546712" lon="10.826280461252693"><ele>773.0000000000001</ele><time>2026-04-01T16:08:16.999Z</time></trkpt><trkpt lat="44.29355931504675" lon="10.826301577356228"><ele>773.0</ele><time>2026-04-01T16:08:17.999Z</time></trkpt><trkpt lat="44.293465095256224" lon="10.826321206476766"><ele>773.0</ele><time>2026-04-01T16:08:18.999Z</time></trkpt><trkpt lat="44.29337258727488" lon="10.826342101890784"><ele>773.0</ele><time>2026-04-01T16:08:19.999Z</time></trkpt><trkpt lat="44.29329981725144" lon="10.826360433359216"><ele>773.0000000000001</ele><time>2026-04-01T16:08:20.999Z</time></trkpt><trkpt lat="44.293227092746314" lon="10.826383085290326"><ele>773.0</ele><time>2026-04-01T16:08:22.999Z</time></trkpt><trkpt lat="44.29323232855649" lon="10.826241510336258"><ele>773.0</ele><time>2026-04-01T16:08:27.999Z</time></trkpt><trkpt lat="44.29330977255688" lon="10.826158660377294"><ele>773.0</ele><time>2026-04-01T16:08:29.999Z</time></trkpt><trkpt lat="44.29340340227146" lon="10.826117496991616"><ele>773.0</ele><time>2026-04-01T16:08:31.999Z</time></trkpt><trkpt lat="44.293466659665256" lon="10.826081881091318"><ele>773.0</ele><time>2026-04-01T16:08:32.999Z</time></trkpt><trkpt lat="44.29356755770607" lon="10.826037233576624"><ele>773.0</ele><time>2026-04-01T16:08:34.999Z</time></trkpt><trkpt lat="44.29366537798967" lon="10.826325613026317"><ele>773.0</ele><time>2026-04-01T16:08:35.999Z</time></trkpt><trkpt lat="44.293755139491694" lon="10.826302559165837"><ele>773.0</ele><time>2026-04-01T16:08:36.999Z</time></trkpt><trkpt lat="44.29390918502722" lon="10.826248809930112"><ele>773.0</ele><time>2026-04-01T16:08:37.999Z</time></trkpt><trkpt lat="44.2940420629303" lon="10.826157564609257"><ele>773.0</ele><time>2026-04-01T16:08:38.999Z</time></trkpt><trkpt lat="44.29412259698254" lon="10.82608658913648"><ele>771.6666666666667</ele><time>2026-04-01T16:08:39.999Z</time></trkpt><trkpt lat="44.29417792641879" lon="10.826036413579416"><ele>770.3333333333333</ele><time>2026-04-01T16:08:40.999Z</time></trkpt><trkpt lat="44.2942442060122" lon="10.825979781368751"><ele>769.0</ele><time>2026-04-01T16:08:41.999Z</time></trkpt><trkpt lat="44.29398632111242" lon="10.825247441577483"><ele>769.0</ele><time>2026-04-01T16:08:44.999Z</time></trkpt><trkpt lat="44.29396692025583" lon="10.825152418481526"><ele>769.0</ele><time>2026-04-01T16:08:45.999Z</time></trkpt><trkpt lat="44.29390415275871" lon="10.824985380925233"><ele>769.0</ele><time>2026-04-01T16:08:47.999Z</time></trkpt><trkpt lat="44.29385526046483" lon="10.824874058296102"><ele>769.0</ele><time>2026-04-01T16:08:49.999Z</time></trkpt><trkpt lat="44.293806986754994" lon="10.824772819557559"><ele>769.0</ele><time>2026-04-01T16:08:51.999Z</time></trkpt><trkpt lat="44.293755817267105" lon="10.824679346734753"><ele>763.8333333333333</ele><time>2026-04-01T16:08:53.999Z</time></trkpt><trkpt lat="44.29369687277348" lon="10.824597782710441"><ele>758.6666666666666</ele><time>2026-04-01T16:08:55.999Z</time></trkpt><trkpt lat="44.29368580723597" lon="10.82447938200549"><ele>753.5</ele><time>2026-04-01T16:08:57.999Z</time></trkpt><trkpt lat="44.293726907969074" lon="10.824373219945317"><ele>748.3333333333333</ele><time>2026-04-01T16:08:59.999Z</time></trkpt><trkpt lat="44.29381454790824" lon="10.824300168681706"><ele>743.1666666666666</ele><time>2026-04-01T16:09:01.999Z</time></trkpt><trkpt lat="44.2938951866528" lon="10.824250420985969"><ele>738.0</ele><time>2026-04-01T16:09:03.999Z</time></trkpt><trkpt lat="44.29389455076844" lon="10.824107019290173"><ele>738.8</ele><time>2026-04-01T16:09:05.999Z</time></trkpt><trkpt lat="44.29390793283954" lon="10.824017566097584"><ele>739.5999999999999</ele><time>2026-04-01T16:09:06.999Z</time></trkpt><trkpt lat="44.29391119289297" lon="10.823875222643123"><ele>740.4000000000001</ele><time>2026-04-01T16:09:08.999Z</time></trkpt><trkpt lat="44.293901196331774" lon="10.823740507536392"><ele>741.2</ele><time>2026-04-01T16:09:10.999Z</time></trkpt><trkpt lat="44.29391614887964" lon="10.82360764144154"><ele>742.0</ele><time>2026-04-01T16:09:13Z</time></trkpt><trkpt lat="44.29393102391501" lon="10.82347173675174"><ele>742.0</ele><time>2026-04-01T16:09:15Z</time></trkpt><trkpt lat="44.29391228100253" lon="10.823367821999426"><ele>742.0</ele><time>2026-04-01T16:09:17Z</time></trkpt><trkpt lat="44.29394285662625" lon="10.823221498535034"><ele>742.0</ele><time>2026-04-01T16:09:18Z</time></trkpt><trkpt lat="44.29394521321308" lon="10.823108273065507"><ele>742.0</ele><time>2026-04-01T16:09:20Z</time></trkpt><trkpt lat="44.293963591800214" lon="10.822984098880966"><ele>742.0</ele><time>2026-04-01T16:09:22Z</time></trkpt><trkpt lat="44.294001082348785" lon="10.822865730628083"><ele>742.0</ele><time>2026-04-01T16:09:24Z</time></trkpt><trkpt lat="44.29406156514067" lon="10.822747618143744"><ele>742.0</ele><time>2026-04-01T16:09:26Z</time></trkpt><trkpt lat="44.294103693409006" lon="10.822662107534363"><ele>742.0</ele><time>2026-04-01T16:09:27Z</time></trkpt><trkpt lat="44.29415291595373" lon="10.822594702674994"><ele>742.0</ele><time>2026-04-01T16:09:28Z</time></trkpt><trkpt lat="44.29424074120908" lon="10.822451244042606"><ele>742.0</ele><time>2026-04-01T16:09:30Z</time></trkpt><trkpt lat="44.29427787722268" lon="10.822352799670625"><ele>740.0</ele><time>2026-04-01T16:09:31Z</time></trkpt><trkpt lat="44.29431181374435" lon="10.822243022265607"><ele>738.0</ele><time>2026-04-01T16:09:32Z</time></trkpt><trkpt lat="44.29433398969778" lon="10.82215779157934"><ele>736.0</ele><time>2026-04-01T16:09:33Z</time></trkpt><trkpt lat="44.2943964888107" lon="10.822006678479548"><ele>734.0</ele><time>2026-04-01T16:09:35Z</time></trkpt><trkpt lat="44.29443614420167" lon="10.821871150034054"><ele>732.0</ele><time>2026-04-01T16:09:36Z</time></trkpt><trkpt lat="44.29446452392505" lon="10.821791534703939"><ele>730.0</ele><time>2026-04-01T16:09:37Z</time></trkpt><trkpt lat="44.29449257238889" lon="10.821699071553514"><ele>728.3333333333334</ele><time>2026-04-01T16:09:38Z</time></trkpt><trkpt lat="44.29452877800477" lon="10.821623799001948"><ele>726.6666666666667</ele><time>2026-04-01T16:09:39Z</time></trkpt><trkpt lat="44.29456687688601" lon="10.821499982561265"><ele>725.0</ele><time>2026-04-01T16:09:41Z</time></trkpt><trkpt lat="44.29459911196261" lon="10.821392213650226"><ele>723.3333333333334</ele><time>2026-04-01T16:09:43Z</time></trkpt><trkpt lat="44.29459305708266" lon="10.821260112651322"><ele>721.6666666666666</ele><time>2026-04-01T16:09:45Z</time></trkpt><trkpt lat="44.29457202580618" lon="10.821113943264114"><ele>720.0</ele><time>2026-04-01T16:09:47Z</time></trkpt><trkpt lat="44.29454671239412" lon="10.820974122131885"><ele>719.2</ele><time>2026-04-01T16:09:49Z</time></trkpt><trkpt lat="44.29453683000981" lon="10.820833079764059"><ele>718.4</ele><time>2026-04-01T16:09:51Z</time></trkpt><trkpt lat="44.29453659245673" lon="10.820673399231694"><ele>717.5999999999999</ele><time>2026-04-01T16:09:53Z</time></trkpt><trkpt lat="44.29454944553886" lon="10.82058059259767"><ele>716.8</ele><time>2026-04-01T16:09:54Z</time></trkpt><trkpt lat="44.29460160356737" lon="10.820433419280132"><ele>716.0</ele><time>2026-04-01T16:09:56Z</time></trkpt><trkpt lat="44.29463284587494" lon="10.820350716091268"><ele>716.0</ele><time>2026-04-01T16:09:57Z</time></trkpt><trkpt lat="44.29464557862213" lon="10.820260671218868"><ele>716.0</ele><time>2026-04-01T16:09:58Z</time></trkpt><trkpt lat="44.29467213321806" lon="10.820126145141032"><ele>716.0</ele><time>2026-04-01T16:10:00Z</time></trkpt><trkpt lat="44.2946983919071" lon="10.819928004193866"><ele>716.0</ele><time>2026-04-01T16:10:02Z</time></trkpt><trkpt lat="44.29471133514024" lon="10.81979946774269"><ele>716.0</ele><time>2026-04-01T16:10:04Z</time></trkpt><trkpt lat="44.29472032752447" lon="10.81967379226253"><ele>716.0</ele><time>2026-04-01T16:10:06Z</time></trkpt><trkpt lat="44.29474424295311" lon="10.819523879344777"><ele>716.0</ele><time>2026-04-01T16:10:08Z</time></trkpt><trkpt lat="44.29475189465877" lon="10.81939021733921"><ele>716.0</ele><time>2026-04-01T16:10:10Z</time></trkpt><trkpt lat="44.29477233461858" lon="10.819299032159872"><ele>716.0</ele><time>2026-04-01T16:10:11Z</time></trkpt><trkpt lat="44.29480384043958" lon="10.819217394918983"><ele>716.0</ele><time>2026-04-01T16:10:12Z</time></trkpt><trkpt lat="44.29483043220811" lon="10.819065159585717"><ele>716.0</ele><time>2026-04-01T16:10:14Z</time></trkpt><trkpt lat="44.29484209074532" lon="10.81891489052621"><ele>716.0</ele><time>2026-04-01T16:10:16Z</time></trkpt><trkpt lat="44.294848227149885" lon="10.818793116846486"><ele>716.0</ele><time>2026-04-01T16:10:17.999Z</time></trkpt><trkpt lat="44.294858220641856" lon="10.818664055288227"><ele>716.0</ele><time>2026-04-01T16:10:20.999Z</time></trkpt><trkpt lat="44.294888123142805" lon="10.818568535209483"><ele>716.0</ele><time>2026-04-01T16:10:22.999Z</time></trkpt><trkpt lat="44.29490291713602" lon="10.818477100583905"><ele>716.0</ele><time>2026-04-01T16:10:42.999Z</time></trkpt><trkpt lat="44.29487588570995" lon="10.81838443112694"><ele>715.8</ele><time>2026-04-01T16:10:44.999Z</time></trkpt><trkpt lat="44.29487663575804" lon="10.818260219186627"><ele>715.5999999999999</ele><time>2026-04-01T16:10:46.999Z</time></trkpt><trkpt lat="44.29483849837244" lon="10.818145267005502"><ele>715.4</ele><time>2026-04-01T16:10:48.999Z</time></trkpt><trkpt lat="44.294790003496644" lon="10.818037165048484"><ele>715.2</ele><time>2026-04-01T16:10:50.999Z</time></trkpt><trkpt lat="44.29476334847493" lon="10.81791558888465"><ele>715.0</ele><time>2026-04-01T16:10:52.999Z</time></trkpt><trkpt lat="44.29472986265115" lon="10.817800811270518"><ele>712.2</ele><time>2026-04-01T16:10:54.999Z</time></trkpt><trkpt lat="44.29466822217927" lon="10.817681162307505"><ele>709.4</ele><time>2026-04-01T16:10:56.999Z</time></trkpt><trkpt lat="44.2946196545207" lon="10.817561828599224"><ele>706.5999999999999</ele><time>2026-04-01T16:10:58.999Z</time></trkpt><trkpt lat="44.294561411599716" lon="10.81741977338357"><ele>703.8</ele><time>2026-04-01T16:11:00.999Z</time></trkpt><trkpt lat="44.294490440622916" lon="10.81730632813543"><ele>701.0</ele><time>2026-04-01T16:11:02.999Z</time></trkpt><trkpt lat="44.29442033132993" lon="10.817216932681042"><ele>700.3333333333333</ele><time>2026-04-01T16:11:04.999Z</time></trkpt><trkpt lat="44.29436532525433" lon="10.81710994773869"><ele>699.6666666666666</ele><time>2026-04-01T16:11:06.999Z</time></trkpt><trkpt lat="44.294312026039165" lon="10.816994520624883"><ele>699.0</ele><time>2026-04-01T16:11:09.999Z</time></trkpt><trkpt lat="44.29424909252736" lon="10.816931063007315"><ele>698.3333333333334</ele><time>2026-04-01T16:11:12.999Z</time></trkpt><trkpt lat="44.29419735276975" lon="10.816846332744412"><ele>697.6666666666667</ele><time>2026-04-01T16:11:14.999Z</time></trkpt><trkpt lat="44.29415688389485" lon="10.816748569786117"><ele>697.0</ele><time>2026-04-01T16:11:18Z</time></trkpt><trkpt lat="44.294073461376925" lon="10.81664608332316"><ele>696.2</ele><time>2026-04-01T16:11:21Z</time></trkpt><trkpt lat="44.29399677205332" lon="10.816563958061161"><ele>695.4000000000001</ele><time>2026-04-01T16:11:23Z</time></trkpt><trkpt lat="44.29392521993171" lon="10.816443543056378"><ele>694.5999999999999</ele><time>2026-04-01T16:11:25Z</time></trkpt><trkpt lat="44.29389184064938" lon="10.816347061816446"><ele>693.8</ele><time>2026-04-01T16:11:26Z</time></trkpt><trkpt lat="44.293811281784215" lon="10.81621868502928"><ele>693.0</ele><time>2026-04-01T16:11:28Z</time></trkpt><trkpt lat="44.29372464501786" lon="10.816129539854614"><ele>690.8333333333334</ele><time>2026-04-01T16:11:30Z</time></trkpt><trkpt lat="44.293693749752585" lon="10.816005665412233"><ele>688.6666666666666</ele><time>2026-04-01T16:11:33Z</time></trkpt><trkpt lat="44.29363503959922" lon="10.815901534304205"><ele>686.5</ele><time>2026-04-01T16:11:40Z</time></trkpt><trkpt lat="44.2936152624131" lon="10.815816375004587"><ele>684.3333333333333</ele><time>2026-04-01T16:11:42Z</time></trkpt><trkpt lat="44.29358986322636" lon="10.815714537614019"><ele>682.1666666666666</ele><time>2026-04-01T16:11:45Z</time></trkpt><trkpt lat="44.293591249147894" lon="10.815618269301707"><ele>680.0</ele><time>2026-04-01T16:11:47Z</time></trkpt><trkpt lat="44.293588825597105" lon="10.815480031721771"><ele>680.0</ele><time>2026-04-01T16:11:49Z</time></trkpt><trkpt lat="44.29355986190238" lon="10.815341411531222"><ele>680.0</ele><time>2026-04-01T16:11:51Z</time></trkpt><trkpt lat="44.29356127776502" lon="10.815218537256346"><ele>680.0</ele><time>2026-04-01T16:11:53Z</time></trkpt><trkpt lat="44.293534328775344" lon="10.81507902907816"><ele>680.0</ele><time>2026-04-01T16:11:55Z</time></trkpt><trkpt lat="44.29348209739419" lon="10.814963638701292"><ele>680.0</ele><time>2026-04-01T16:11:57Z</time></trkpt><trkpt lat="44.29343652262005" lon="10.814870276905376"><ele>679.8333333333333</ele><time>2026-04-01T16:11:59Z</time></trkpt><trkpt lat="44.293382859101996" lon="10.81481188677234"><ele>679.6666666666666</ele><time>2026-04-01T16:12:01Z</time></trkpt><trkpt lat="44.293325530719656" lon="10.814738479620205"><ele>679.5</ele><time>2026-04-01T16:12:03Z</time></trkpt><trkpt lat="44.29327629692605" lon="10.814668890569326"><ele>679.3333333333334</ele><time>2026-04-01T16:12:05Z</time></trkpt><trkpt lat="44.29321873191734" lon="10.814581181685613"><ele>679.1666666666667</ele><time>2026-04-01T16:12:08Z</time></trkpt><trkpt lat="44.29316373984388" lon="10.814496545131496"><ele>679.0</ele><time>2026-04-01T16:12:11Z</time></trkpt><trkpt lat="44.29310678869265" lon="10.814437068073493"><ele>675.7142857142857</ele><time>2026-04-01T16:12:13Z</time></trkpt><trkpt lat="44.29304527098478" lon="10.814382973123951"><ele>672.4285714285714</ele><time>2026-04-01T16:12:15Z</time></trkpt><trkpt lat="44.292992771261936" lon="10.814333033309227"><ele>669.1428571428571</ele><time>2026-04-01T16:12:17Z</time></trkpt><trkpt lat="44.292936131865424" lon="10.814279702898002"><ele>665.8571428571429</ele><time>2026-04-01T16:12:19.999Z</time></trkpt><trkpt lat="44.29285322384867" lon="10.81424433203671"><ele>662.5714285714286</ele><time>2026-04-01T16:12:23.999Z</time></trkpt><trkpt lat="44.292788061292306" lon="10.814212823526777"><ele>659.2857142857142</ele><time>2026-04-01T16:12:26.999Z</time></trkpt><trkpt lat="44.29272287977166" lon="10.81420782005884"><ele>656.0</ele><time>2026-04-01T16:12:29.999Z</time></trkpt><trkpt lat="44.292653352727456" lon="10.814210679242997"><ele>655.9999999999999</ele><time>2026-04-01T16:13:08.999Z</time></trkpt><trkpt lat="44.29258139470688" lon="10.814200189688902"><ele>656.0</ele><time>2026-04-01T16:13:14.999Z</time></trkpt><trkpt lat="44.292517868595716" lon="10.814191119597163"><ele>656.0</ele><time>2026-04-01T16:13:19.999Z</time></trkpt><trkpt lat="44.292458810871025" lon="10.814159969796362"><ele>656.0</ele><time>2026-04-01T16:13:22.999Z</time></trkpt><trkpt lat="44.29240162227246" lon="10.814115548480007"><ele>656.0</ele><time>2026-04-01T16:13:28Z</time></trkpt><trkpt lat="44.29235706647428" lon="10.814040888042047"><ele>655.9999999999999</ele><time>2026-04-01T16:13:33Z</time></trkpt><trkpt lat="44.292321570261876" lon="10.813942777397344"><ele>656.0</ele><time>2026-04-01T16:13:39Z</time></trkpt><trkpt lat="44.292259139701244" lon="10.813880150140697"><ele>652.4285714285713</ele><time>2026-04-01T16:13:45Z</time></trkpt><trkpt lat="44.2922099998035" lon="10.813823041513139"><ele>648.8571428571429</ele><time>2026-04-01T16:13:49Z</time></trkpt><trkpt lat="44.292142286865214" lon="10.813782140172442"><ele>645.2857142857142</ele><time>2026-04-01T16:13:53Z</time></trkpt><trkpt lat="44.2920866526402" lon="10.813736234591591"><ele>641.7142857142857</ele><time>2026-04-01T16:13:56Z</time></trkpt><trkpt lat="44.29203029873713" lon="10.813656909845896"><ele>638.1428571428571</ele><time>2026-04-01T16:14:00Z</time></trkpt><trkpt lat="44.29198214671428" lon="10.813570981313603"><ele>634.5714285714286</ele><time>2026-04-01T16:14:03Z</time></trkpt><trkpt lat="44.29192789469295" lon="10.81351228117078"><ele>631.0</ele><time>2026-04-01T16:14:05Z</time></trkpt><trkpt lat="44.29185530167311" lon="10.813479587734243"><ele>630.3333333333334</ele><time>2026-04-01T16:14:08Z</time></trkpt><trkpt lat="44.29179538064056" lon="10.81340799197162"><ele>629.6666666666667</ele><time>2026-04-01T16:14:11Z</time></trkpt><trkpt lat="44.29178038973544" lon="10.813309011695674"><ele>629.0</ele><time>2026-04-01T16:14:15Z</time></trkpt><trkpt lat="44.29174563280679" lon="10.813215412595696"><ele>628.3333333333334</ele><time>2026-04-01T16:14:18.999Z</time></trkpt><trkpt lat="44.2917197178829" lon="10.813105854836797"><ele>627.6666666666666</ele><time>2026-04-01T16:14:22.999Z</time></trkpt><trkpt lat="44.291689299790875" lon="10.813006553294352"><ele>627.0</ele><time>2026-04-01T16:14:24.999Z</time></trkpt><trkpt lat="44.29167083906936" lon="10.81291541898117"><ele>627.0</ele><time>2026-04-01T16:14:26.999Z</time></trkpt><trkpt lat="44.29164739833451" lon="10.812826950869045"><ele>627.0</ele><time>2026-04-01T16:14:28.999Z</time></trkpt><trkpt lat="44.29161987737833" lon="10.812706213220979"><ele>627.0</ele><time>2026-04-01T16:14:31.999Z</time></trkpt><trkpt lat="44.29166293689144" lon="10.812609791558756"><ele>627.0</ele><time>2026-04-01T16:14:34.999Z</time></trkpt><trkpt lat="44.29169035155749" lon="10.812524541874994"><ele>627.0</ele><time>2026-04-01T16:14:38.999Z</time></trkpt><trkpt lat="44.29167410375137" lon="10.812424816841668"><ele>627.0</ele><time>2026-04-01T16:14:42.999Z</time></trkpt><trkpt lat="44.291649622580174" lon="10.812331162756175"><ele>626.0</ele><time>2026-04-01T16:14:54.999Z</time></trkpt><trkpt lat="44.29166314276401" lon="10.812225802427296"><ele>625.0</ele><time>2026-04-01T16:14:58.999Z</time></trkpt><trkpt lat="44.2916705947371" lon="10.812125868459704"><ele>624.0</ele><time>2026-04-01T16:15:09.999Z</time></trkpt><trkpt lat="44.29166759817642" lon="10.81203389652158"><ele>623.0</ele><time>2026-04-01T16:15:11.999Z</time></trkpt><trkpt lat="44.2916074189323" lon="10.811973414852488"><ele>622.0</ele><time>2026-04-01T16:15:14.999Z</time></trkpt><trkpt lat="44.291552951420435" lon="10.811923027677125"><ele>621.0</ele><time>2026-04-01T16:15:17.999Z</time></trkpt><trkpt lat="44.29147015644506" lon="10.811913262598438"><ele>620.0</ele><time>2026-04-01T16:15:21.999Z</time></trkpt><trkpt lat="44.291386404374876" lon="10.811903178768185"><ele>616.8333333333333</ele><time>2026-04-01T16:15:24.999Z</time></trkpt><trkpt lat="44.29133333057981" lon="10.811815394642034"><ele>613.6666666666666</ele><time>2026-04-01T16:15:27.999Z</time></trkpt><trkpt lat="44.291308490068474" lon="10.811715387679529"><ele>610.5</ele><time>2026-04-01T16:15:31Z</time></trkpt><trkpt lat="44.29124651225733" lon="10.811628991157264"><ele>607.3333333333334</ele><time>2026-04-01T16:15:34Z</time></trkpt><trkpt lat="44.29118613659065" lon="10.811657826306348"><ele>604.1666666666667</ele><time>2026-04-01T16:15:36Z</time></trkpt><trkpt lat="44.291117541765146" lon="10.81174919714257"><ele>601.0</ele><time>2026-04-01T16:15:38Z</time></trkpt><trkpt lat="44.29103299730758" lon="10.81183745812191"><ele>601.0</ele><time>2026-04-01T16:15:40Z</time></trkpt><trkpt lat="44.29096612716442" lon="10.811868063330332"><ele>601.0</ele><time>2026-04-01T16:15:42Z</time></trkpt><trkpt lat="44.29089756292092" lon="10.81187948481608"><ele>601.0</ele><time>2026-04-01T16:15:45Z</time></trkpt><trkpt lat="44.29082518969403" lon="10.811891354901851"><ele>601.0</ele><time>2026-04-01T16:15:51Z</time></trkpt><trkpt lat="44.29075571214252" lon="10.811884749205714"><ele>601.0</ele><time>2026-04-01T16:15:55Z</time></trkpt><trkpt lat="44.29069872715087" lon="10.811830943286811"><ele>601.0</ele><time>2026-04-01T16:15:57Z</time></trkpt><trkpt lat="44.29061391379407" lon="10.811824129375278"><ele>601.0</ele><time>2026-04-01T16:16:00Z</time></trkpt><trkpt lat="44.29055232547742" lon="10.811796306578211"><ele>596.5</ele><time>2026-04-01T16:16:03Z</time></trkpt><trkpt lat="44.29047492571429" lon="10.811735114867016"><ele>592.0</ele><time>2026-04-01T16:16:06Z</time></trkpt><trkpt lat="44.290397126704356" lon="10.811687657763144"><ele>587.5</ele><time>2026-04-01T16:16:09Z</time></trkpt><trkpt lat="44.29031997057426" lon="10.811619977301216"><ele>583.0</ele><time>2026-04-01T16:16:12Z</time></trkpt><trkpt lat="44.29025520801957" lon="10.811569646484891"><ele>578.5</ele><time>2026-04-01T16:16:15Z</time></trkpt><trkpt lat="44.2901909103885" lon="10.811526566198685"><ele>574.0</ele><time>2026-04-01T16:16:19Z</time></trkpt><trkpt lat="44.29011897550509" lon="10.811454463947499"><ele>574.0</ele><time>2026-04-01T16:16:24Z</time></trkpt><trkpt lat="44.29004162166024" lon="10.81143893226523"><ele>574.0</ele><time>2026-04-01T16:16:27Z</time></trkpt><trkpt lat="44.28998865340871" lon="10.811348728601399"><ele>574.0</ele><time>2026-04-01T16:16:31Z</time></trkpt><trkpt lat="44.28995833670992" lon="10.811244421122002"><ele>574.0</ele><time>2026-04-01T16:16:35Z</time></trkpt><trkpt lat="44.28988896076302" lon="10.81130281029592"><ele>574.0</ele><time>2026-04-01T16:18:11Z</time></trkpt><trkpt lat="44.28981707040836" lon="10.811296056755431"><ele>574.0</ele><time>2026-04-01T16:18:13Z</time></trkpt><trkpt lat="44.28972926229988" lon="10.811347728064305"><ele>571.0</ele><time>2026-04-01T16:18:16Z</time></trkpt><trkpt lat="44.28966366186915" lon="10.811387401538486"><ele>568.0</ele><time>2026-04-01T16:18:18Z</time></trkpt><trkpt lat="44.28959252618801" lon="10.81143042289802"><ele>565.0</ele><time>2026-04-01T16:18:20Z</time></trkpt><trkpt lat="44.28953274110898" lon="10.811484329122424"><ele>562.0</ele><time>2026-04-01T16:18:23Z</time></trkpt><trkpt lat="44.2894609523578" lon="10.811509996554543"><ele>559.0</ele><time>2026-04-01T16:18:26Z</time></trkpt><trkpt lat="44.28937413730999" lon="10.811562500842776"><ele>556.0</ele><time>2026-04-01T16:18:29Z</time></trkpt><trkpt lat="44.28936605602197" lon="10.811670517027789"><ele>556.0</ele><time>2026-04-01T16:18:30Z</time></trkpt><trkpt lat="44.289290351807956" lon="10.81168373889434"><ele>556.0</ele><time>2026-04-01T16:18:32Z</time></trkpt><trkpt lat="44.28919815278931" lon="10.81171531831205"><ele>556.0</ele><time>2026-04-01T16:18:34Z</time></trkpt><trkpt lat="44.28913570097351" lon="10.811740712868072"><ele>556.0</ele><time>2026-04-01T16:18:36Z</time></trkpt><trkpt lat="44.28904825730875" lon="10.811766536641247"><ele>556.0</ele><time>2026-04-01T16:18:39Z</time></trkpt><trkpt lat="44.28898693940074" lon="10.811814441856626"><ele>556.0</ele><time>2026-04-01T16:19:40.999Z</time></trkpt><trkpt lat="44.28897141554099" lon="10.811939190644933"><ele>554.5</ele><time>2026-04-01T16:19:44Z</time></trkpt><trkpt lat="44.28896455923683" lon="10.812089196088108"><ele>553.0</ele><time>2026-04-01T16:19:46Z</time></trkpt><trkpt lat="44.28895189067892" lon="10.812212920553282"><ele>551.5</ele><time>2026-04-01T16:19:48Z</time></trkpt><trkpt lat="44.28892227895041" lon="10.812292385157495"><ele>550.0</ele><time>2026-04-01T16:19:50Z</time></trkpt><trkpt lat="44.2888537247877" lon="10.812246497487296"><ele>548.5</ele><time>2026-04-01T16:19:53Z</time></trkpt><trkpt lat="44.288765472818405" lon="10.812225669303706"><ele>547.0</ele><time>2026-04-01T16:20:04Z</time></trkpt><trkpt lat="44.288701480478274" lon="10.812315498484258"><ele>544.5</ele><time>2026-04-01T16:20:06Z</time></trkpt><trkpt lat="44.28866194013087" lon="10.81240411951221"><ele>542.0</ele><time>2026-04-01T16:20:09Z</time></trkpt><trkpt lat="44.28859393466631" lon="10.812467965315491"><ele>539.5</ele><time>2026-04-01T16:20:12Z</time></trkpt><trkpt lat="44.28851609685378" lon="10.812524738536556"><ele>537.0</ele><time>2026-04-01T16:20:15Z</time></trkpt><trkpt lat="44.28844666218411" lon="10.81259965279876"><ele>534.5</ele><time>2026-04-01T16:20:18Z</time></trkpt><trkpt lat="44.288416976043365" lon="10.812709593984314"><ele>532.0</ele><time>2026-04-01T16:20:21Z</time></trkpt><trkpt lat="44.288470074802355" lon="10.812797128546682"><ele>530.5</ele><time>2026-04-01T16:20:24Z</time></trkpt><trkpt lat="44.28852747855688" lon="10.81287593453286"><ele>529.0</ele><time>2026-04-01T16:20:26Z</time></trkpt><trkpt lat="44.28853434480098" lon="10.812990897159512"><ele>527.5</ele><time>2026-04-01T16:20:28Z</time></trkpt><trkpt lat="44.288516049863375" lon="10.813103382374035"><ele>526.0</ele><time>2026-04-01T16:20:30Z</time></trkpt><trkpt lat="44.288510670781115" lon="10.813210419240317"><ele>524.5</ele><time>2026-04-01T16:20:33Z</time></trkpt><trkpt lat="44.28855017649306" lon="10.813294802044128"><ele>523.0</ele><time>2026-04-01T16:20:35Z</time></trkpt><trkpt lat="44.28856002484333" lon="10.81340725299246"><ele>522.6666666666667</ele><time>2026-04-01T16:20:37Z</time></trkpt><trkpt lat="44.28854324550009" lon="10.813512523387574"><ele>522.3333333333334</ele><time>2026-04-01T16:20:39Z</time></trkpt><trkpt lat="44.288498794092376" lon="10.813613883874265"><ele>522.0</ele><time>2026-04-01T16:20:41Z</time></trkpt><trkpt lat="44.28844670720866" lon="10.813702844751553"><ele>521.6666666666666</ele><time>2026-04-01T16:20:43Z</time></trkpt><trkpt lat="44.28840660529369" lon="10.813819193691868"><ele>521.3333333333333</ele><time>2026-04-01T16:20:46Z</time></trkpt><trkpt lat="44.288367542840234" lon="10.81392017522975"><ele>521.0</ele><time>2026-04-01T16:20:47.999Z</time></trkpt><trkpt lat="44.288354934869446" lon="10.814026754738435"><ele>521.0</ele><time>2026-04-01T16:20:49.999Z</time></trkpt><trkpt lat="44.28834906827992" lon="10.814124203978045"><ele>521.0</ele><time>2026-04-01T16:20:52.999Z</time></trkpt><trkpt lat="44.28832257780151" lon="10.81422082360822"><ele>521.0</ele><time>2026-04-01T16:20:55.999Z</time></trkpt><trkpt lat="44.28829159809376" lon="10.814326635717212"><ele>521.0</ele><time>2026-04-01T16:20:57.999Z</time></trkpt><trkpt lat="44.288245599745046" lon="10.814425739020827"><ele>521.0</ele><time>2026-04-01T16:20:59.999Z</time></trkpt><trkpt lat="44.28820086984804" lon="10.81449929391306"><ele>521.0</ele><time>2026-04-01T16:21:01.999Z</time></trkpt><trkpt lat="44.28815247109929" lon="10.814584896439353"><ele>521.5</ele><time>2026-04-01T16:21:04.999Z</time></trkpt><trkpt lat="44.288151974520524" lon="10.814710832113574"><ele>522.0</ele><time>2026-04-01T16:21:06.999Z</time></trkpt><trkpt lat="44.28815296925122" lon="10.81480270938484"><ele>522.5</ele><time>2026-04-01T16:21:07.999Z</time></trkpt><trkpt lat="44.28813406038477" lon="10.814919776104027"><ele>523.0</ele><time>2026-04-01T16:21:09.999Z</time></trkpt><trkpt lat="44.28813204380671" lon="10.815073696987476"><ele>523.5</ele><time>2026-04-01T16:21:12.999Z</time></trkpt><trkpt lat="44.28811589604024" lon="10.815195152563504"><ele>524.0</ele><time>2026-04-01T16:21:14.999Z</time></trkpt><trkpt lat="44.288065415560446" lon="10.815259589650143"><ele>522.5</ele><time>2026-04-01T16:21:16.999Z</time></trkpt><trkpt lat="44.28796671499639" lon="10.815327226208156"><ele>521.0</ele><time>2026-04-01T16:21:18.999Z</time></trkpt><trkpt lat="44.28791477224129" lon="10.815440802697793"><ele>519.5</ele><time>2026-04-01T16:21:20.999Z</time></trkpt><trkpt lat="44.28786496484225" lon="10.815538158007636"><ele>518.0</ele><time>2026-04-01T16:21:22.999Z</time></trkpt><trkpt lat="44.28783432690131" lon="10.815620444578514"><ele>516.5</ele><time>2026-04-01T16:21:25.999Z</time></trkpt><trkpt lat="44.28781569799696" lon="10.815706515850355"><ele>515.0</ele><time>2026-04-01T16:22:40Z</time></trkpt><trkpt lat="44.28773257449059" lon="10.81575477853254"><ele>515.0</ele><time>2026-04-01T16:23:17.999Z</time></trkpt><trkpt lat="44.28764850484705" lon="10.815822283290105"><ele>515.0</ele><time>2026-04-01T16:23:21.999Z</time></trkpt><trkpt lat="44.287581987404714" lon="10.815860255383873"><ele>515.0</ele><time>2026-04-01T16:23:23.999Z</time></trkpt><trkpt lat="44.287537986560636" lon="10.815938896297459"><ele>515.0</ele><time>2026-04-01T16:23:25.999Z</time></trkpt><trkpt lat="44.287515460243206" lon="10.816056651259373"><ele>515.0</ele><time>2026-04-01T16:23:28.999Z</time></trkpt><trkpt lat="44.28749025185872" lon="10.816140035450523"><ele>515.0</ele><time>2026-04-01T16:23:30.999Z</time></trkpt><trkpt lat="44.28744232451739" lon="10.816237946113679"><ele>516.1666666666666</ele><time>2026-04-01T16:23:32.999Z</time></trkpt><trkpt lat="44.28740334743803" lon="10.816334817232356"><ele>517.3333333333333</ele><time>2026-04-01T16:23:34.999Z</time></trkpt><trkpt lat="44.28736982115202" lon="10.81642708757922"><ele>518.5</ele><time>2026-04-01T16:23:48.999Z</time></trkpt><trkpt lat="44.287324155747285" lon="10.816518826854969"><ele>519.6666666666666</ele><time>2026-04-01T16:23:51.998Z</time></trkpt><trkpt lat="44.28722634092722" lon="10.816548587331084"><ele>520.8333333333334</ele><time>2026-04-01T16:23:54Z</time></trkpt><trkpt lat="44.28714992745793" lon="10.816573609219718"><ele>522.0</ele><time>2026-04-01T16:23:56Z</time></trkpt><trkpt lat="44.28708685127431" lon="10.816655391248334"><ele>522.0</ele><time>2026-04-01T16:23:58Z</time></trkpt><trkpt lat="44.28700577058356" lon="10.816707321642744"><ele>522.0</ele><time>2026-04-01T16:24:00Z</time></trkpt><trkpt lat="44.28691406231559" lon="10.816693648309665"><ele>522.0</ele><time>2026-04-01T16:24:02Z</time></trkpt><trkpt lat="44.286855069228245" lon="10.816635829855068"><ele>522.0</ele><time>2026-04-01T16:24:04Z</time></trkpt><trkpt lat="44.28680719553148" lon="10.816575584714704"><ele>522.0</ele><time>2026-04-01T16:24:05Z</time></trkpt><trkpt lat="44.28671564753133" lon="10.816571647305775"><ele>522.0</ele><time>2026-04-01T16:24:07Z</time></trkpt><trkpt lat="44.28661833515559" lon="10.816640030997378"><ele>522.0</ele><time>2026-04-01T16:24:09Z</time></trkpt><trkpt lat="44.28653429916258" lon="10.816709124288964"><ele>522.0</ele><time>2026-04-01T16:24:11Z</time></trkpt><trkpt lat="44.28651023290373" lon="10.816842975080236"><ele>522.0</ele><time>2026-04-01T16:24:13Z</time></trkpt><trkpt lat="44.286502281320324" lon="10.816944051550037"><ele>522.0</ele><time>2026-04-01T16:24:15Z</time></trkpt><trkpt lat="44.286401669553584" lon="10.816997975420591"><ele>522.0</ele><time>2026-04-01T16:24:19Z</time></trkpt><trkpt lat="44.28628760186623" lon="10.817051321703914"><ele>525.0</ele><time>2026-04-01T16:24:21Z</time></trkpt><trkpt lat="44.28620507065418" lon="10.81710158269416"><ele>528.0</ele><time>2026-04-01T16:24:23Z</time></trkpt><trkpt lat="44.286101838610016" lon="10.817150856419186"><ele>531.0</ele><time>2026-04-01T16:24:25Z</time></trkpt><trkpt lat="44.28604162456726" lon="10.817196034267866"><ele>534.0</ele><time>2026-04-01T16:24:26Z</time></trkpt><trkpt lat="44.28594919392888" lon="10.817266630171101"><ele>537.0</ele><time>2026-04-01T16:24:28Z</time></trkpt><trkpt lat="44.285861031780065" lon="10.81734424073221"><ele>537.0</ele><time>2026-04-01T16:24:30Z</time></trkpt><trkpt lat="44.28577975544315" lon="10.817437176717977"><ele>537.0</ele><time>2026-04-01T16:24:32Z</time></trkpt><trkpt lat="44.28570672131407" lon="10.817543094778232"><ele>537.0</ele><time>2026-04-01T16:24:34Z</time></trkpt><trkpt lat="44.285671438955205" lon="10.817631174538857"><ele>537.0</ele><time>2026-04-01T16:24:35.999Z</time></trkpt><trkpt lat="44.285644049198595" lon="10.817717918571343"><ele>537.0</ele><time>2026-04-01T16:24:37.999Z</time></trkpt><trkpt lat="44.285615837129" lon="10.817857435195874"><ele>538.8000000000001</ele><time>2026-04-01T16:24:39.999Z</time></trkpt><trkpt lat="44.28558415002739" lon="10.817994840151055"><ele>540.6</ele><time>2026-04-01T16:24:41.999Z</time></trkpt><trkpt lat="44.28551338210259" lon="10.818090744059488"><ele>542.4000000000001</ele><time>2026-04-01T16:24:43.999Z</time></trkpt><trkpt lat="44.285402468486275" lon="10.818155389816878"><ele>544.2</ele><time>2026-04-01T16:24:45.999Z</time></trkpt><trkpt lat="44.28533274497303" lon="10.818140745893002"><ele>546.0</ele><time>2026-04-01T16:24:48.999Z</time></trkpt><trkpt lat="44.28526996979791" lon="10.818073162383186"><ele>546.0</ele><time>2026-04-01T16:24:50.999Z</time></trkpt><trkpt lat="44.28520230553248" lon="10.818064586658627"><ele>546.0</ele><time>2026-04-01T16:24:52.999Z</time></trkpt><trkpt lat="44.28513929011549" lon="10.818108678000117"><ele>546.0</ele><time>2026-04-01T16:24:54.999Z</time></trkpt><trkpt lat="44.285071267159964" lon="10.818113997395145"><ele>546.0</ele><time>2026-04-01T16:24:56.999Z</time></trkpt><trkpt lat="44.285028267200786" lon="10.8180488928853"><ele>546.0</ele><time>2026-04-01T16:24:58.999Z</time></trkpt><trkpt lat="44.284962857832056" lon="10.817984275707294"><ele>546.0</ele><time>2026-04-01T16:25:00.999Z</time></trkpt><trkpt lat="44.28489446970159" lon="10.81791030051467"><ele>546.0</ele><time>2026-04-01T16:25:03.999Z</time></trkpt><trkpt lat="44.28483871902665" lon="10.81783999611115"><ele>546.0</ele><time>2026-04-01T16:25:05.999Z</time></trkpt><trkpt lat="44.28476596060784" lon="10.81777028878375"><ele>546.0</ele><time>2026-04-01T16:25:08.999Z</time></trkpt><trkpt lat="44.284696719363424" lon="10.817752033400685"><ele>546.0</ele><time>2026-04-01T16:25:10.999Z</time></trkpt><trkpt lat="44.28459235204402" lon="10.81780476709218"><ele>546.0</ele><time>2026-04-01T16:25:12.999Z</time></trkpt><trkpt lat="44.28455249689738" lon="10.817901752075072"><ele>546.0</ele><time>2026-04-01T16:25:16.999Z</time></trkpt><trkpt lat="44.2844843798784" lon="10.81800119233026"><ele>546.0</ele><time>2026-04-01T16:25:18.999Z</time></trkpt><trkpt lat="44.28440739261246" lon="10.818068875960067"><ele>546.0</ele><time>2026-04-01T16:25:20.999Z</time></trkpt><trkpt lat="44.28432054442204" lon="10.818085578319282"><ele>546.0</ele><time>2026-04-01T16:25:22.999Z</time></trkpt><trkpt lat="44.28422704703394" lon="10.818082033010647"><ele>546.0</ele><time>2026-04-01T16:25:24.999Z</time></trkpt><trkpt lat="44.28415738896568" lon="10.818131933161316"><ele>546.0</ele><time>2026-04-01T16:25:26.999Z</time></trkpt><trkpt lat="44.284080213315846" lon="10.818217619723807"><ele>546.0</ele><time>2026-04-01T16:25:28.999Z</time></trkpt><trkpt lat="44.284001012105485" lon="10.818267969371254"><ele>546.0</ele><time>2026-04-01T16:25:30.999Z</time></trkpt><trkpt lat="44.283921675168266" lon="10.818358144486007"><ele>546.0</ele><time>2026-04-01T16:25:33.999Z</time></trkpt><trkpt lat="44.2838886302157" lon="10.818447983033616"><ele>546.0</ele><time>2026-04-01T16:25:35.999Z</time></trkpt><trkpt lat="44.283850030790965" lon="10.818557079635754"><ele>546.0</ele><time>2026-04-01T16:25:37.999Z</time></trkpt><trkpt lat="44.2838480736561" lon="10.818697343108385"><ele>546.0</ele><time>2026-04-01T16:25:39.999Z</time></trkpt><trkpt lat="44.28386703177901" lon="10.818812906578176"><ele>546.0</ele><time>2026-04-01T16:25:41.999Z</time></trkpt><trkpt lat="44.28387701666977" lon="10.818954931946603"><ele>546.0</ele><time>2026-04-01T16:25:43.999Z</time></trkpt><trkpt lat="44.28387272728824" lon="10.81910683847368"><ele>548.6</ele><time>2026-04-01T16:25:45.998Z</time></trkpt><trkpt lat="44.2838115055642" lon="10.819184995129921"><ele>551.2</ele><time>2026-04-01T16:25:47.998Z</time></trkpt><trkpt lat="44.28376151265142" lon="10.819274294949524"><ele>553.8</ele><time>2026-04-01T16:25:49.998Z</time></trkpt><trkpt lat="44.283659283719516" lon="10.819321539835734"><ele>556.4</ele><time>2026-04-01T16:25:52.998Z</time></trkpt><trkpt lat="44.283569859391406" lon="10.81938339135485"><ele>559.0</ele><time>2026-04-01T16:25:54.998Z</time></trkpt><trkpt lat="44.283499040971094" lon="10.819448696325313"><ele>561.1666666666667</ele><time>2026-04-01T16:25:55.998Z</time></trkpt><trkpt lat="44.28343464549624" lon="10.819527831373588"><ele>563.3333333333334</ele><time>2026-04-01T16:25:57.998Z</time></trkpt><trkpt lat="44.28339138400199" lon="10.81963264869746"><ele>565.5</ele><time>2026-04-01T16:26:00Z</time></trkpt><trkpt lat="44.28336415071163" lon="10.819727134080688"><ele>567.6666666666666</ele><time>2026-04-01T16:26:01Z</time></trkpt><trkpt lat="44.28335004013015" lon="10.819823730315626"><ele>569.8333333333333</ele><time>2026-04-01T16:26:03Z</time></trkpt><trkpt lat="44.28337879567042" lon="10.819905094762987"><ele>572.0</ele><time>2026-04-01T16:27:23.999Z</time></trkpt><trkpt lat="44.283473157259664" lon="10.819897420395097"><ele>572.0</ele><time>2026-04-01T16:27:25.999Z</time></trkpt><trkpt lat="44.283542540585124" lon="10.81991177106768"><ele>572.0</ele><time>2026-04-01T16:27:26.999Z</time></trkpt><trkpt lat="44.28360956150535" lon="10.820052325179594"><ele>572.0</ele><time>2026-04-01T16:27:28.999Z</time></trkpt><trkpt lat="44.28360387367344" lon="10.820153320692985"><ele>572.0</ele><time>2026-04-01T16:27:29.999Z</time></trkpt><trkpt lat="44.28355386204272" lon="10.820245132158139"><ele>572.0</ele><time>2026-04-01T16:27:30.999Z</time></trkpt><trkpt lat="44.28352859572987" lon="10.820364964679268"><ele>572.0</ele><time>2026-04-01T16:27:31.998Z</time></trkpt><trkpt lat="44.28348380939825" lon="10.820515321741238"><ele>574.25</ele><time>2026-04-01T16:27:32.998Z</time></trkpt><trkpt lat="44.28344972887586" lon="10.820682245328323"><ele>576.5</ele><time>2026-04-01T16:27:33.998Z</time></trkpt><trkpt lat="44.28344974416209" lon="10.820839649407155"><ele>578.75</ele><time>2026-04-01T16:27:34.998Z</time></trkpt><trkpt lat="44.283480166060265" lon="10.820996348593868"><ele>581.0</ele><time>2026-04-01T16:27:35.998Z</time></trkpt><trkpt lat="44.2835445989669" lon="10.821147321547864"><ele>581.0</ele><time>2026-04-01T16:27:36.998Z</time></trkpt><trkpt lat="44.283630553838464" lon="10.821312504113136"><ele>581.0</ele><time>2026-04-01T16:27:37.998Z</time></trkpt><trkpt lat="44.28372779538897" lon="10.821496078619974"><ele>581.0</ele><time>2026-04-01T16:27:38.998Z</time></trkpt><trkpt lat="44.28382164514332" lon="10.821698742875277"><ele>579.0</ele><time>2026-04-01T16:27:39.998Z</time></trkpt><trkpt lat="44.28389188668077" lon="10.821866152025386"><ele>577.0</ele><time>2026-04-01T16:27:40.998Z</time></trkpt><trkpt lat="44.28395861291563" lon="10.821997440875869"><ele>575.0</ele><time>2026-04-01T16:27:41.998Z</time></trkpt><trkpt lat="44.284000121628566" lon="10.822132323161187"><ele>573.0</ele><time>2026-04-01T16:27:42.998Z</time></trkpt><trkpt lat="44.28406841869846" lon="10.822229194610172"><ele>577.4</ele><time>2026-04-01T16:27:43.998Z</time></trkpt><trkpt lat="44.28411261126736" lon="10.822315015423877"><ele>581.8</ele><time>2026-04-01T16:27:44.998Z</time></trkpt><trkpt lat="44.28421858696009" lon="10.822374991714325"><ele>586.2</ele><time>2026-04-01T16:27:46.998Z</time></trkpt><trkpt lat="44.28425530545827" lon="10.82218947148732"><ele>590.6</ele><time>2026-04-01T16:27:48.998Z</time></trkpt><trkpt lat="44.28423003696407" lon="10.822052452551237"><ele>595.0</ele><time>2026-04-01T16:27:49.998Z</time></trkpt><trkpt lat="44.28419689246855" lon="10.821902679865715"><ele>596.2</ele><time>2026-04-01T16:27:50.998Z</time></trkpt><trkpt lat="44.2841822454017" lon="10.82173804862012"><ele>597.4</ele><time>2026-04-01T16:27:51.998Z</time></trkpt><trkpt lat="44.28420517873469" lon="10.821587545470338"><ele>598.6</ele><time>2026-04-01T16:27:52.998Z</time></trkpt><trkpt lat="44.28425814463716" lon="10.821454198333619"><ele>599.8</ele><time>2026-04-01T16:27:53.998Z</time></trkpt><trkpt lat="44.284313145446006" lon="10.82134922060684"><ele>601.0</ele><time>2026-04-01T16:27:54.998Z</time></trkpt><trkpt lat="44.28437237144799" lon="10.821278766397617"><ele>601.0</ele><time>2026-04-01T16:27:55.998Z</time></trkpt><trkpt lat="44.284447452981496" lon="10.821259876176985"><ele>601.0</ele><time>2026-04-01T16:27:56.998Z</time></trkpt><trkpt lat="44.28455012128274" lon="10.821279993935997"><ele>601.0</ele><time>2026-04-01T16:27:57.998Z</time></trkpt><trkpt lat="44.28468110064159" lon="10.82129030125529"><ele>601.0</ele><time>2026-04-01T16:27:58.998Z</time></trkpt><trkpt lat="44.284831309389226" lon="10.821285725014489"><ele>604.75</ele><time>2026-04-01T16:27:59.998Z</time></trkpt><trkpt lat="44.28499520509203" lon="10.82128458304615"><ele>608.5</ele><time>2026-04-01T16:28:00.998Z</time></trkpt><trkpt lat="44.28511180377845" lon="10.821303285927904"><ele>612.25</ele><time>2026-04-01T16:28:01.998Z</time></trkpt><trkpt lat="44.285229992966826" lon="10.821292430638017"><ele>616.0</ele><time>2026-04-01T16:28:02.998Z</time></trkpt><trkpt lat="44.28531344489268" lon="10.821361472151935"><ele>616.0</ele><time>2026-04-01T16:28:04Z</time></trkpt><trkpt lat="44.2854025638754" lon="10.821444307501793"><ele>616.0</ele><time>2026-04-01T16:28:05Z</time></trkpt><trkpt lat="44.285521526221224" lon="10.821523729421296"><ele>616.0</ele><time>2026-04-01T16:28:06Z</time></trkpt><trkpt lat="44.28564169850522" lon="10.821637802751532"><ele>616.0</ele><time>2026-04-01T16:28:07Z</time></trkpt><trkpt lat="44.28576780910962" lon="10.821749392814883"><ele>617.6</ele><time>2026-04-01T16:28:08Z</time></trkpt><trkpt lat="44.28586037509605" lon="10.821864060818452"><ele>619.2</ele><time>2026-04-01T16:28:09Z</time></trkpt><trkpt lat="44.28594544749554" lon="10.821958261455789"><ele>620.8</ele><time>2026-04-01T16:28:10Z</time></trkpt><trkpt lat="44.28600562178959" lon="10.822075475957003"><ele>622.4</ele><time>2026-04-01T16:28:11Z</time></trkpt><trkpt lat="44.28604973861155" lon="10.822213463563093"><ele>624.0</ele><time>2026-04-01T16:28:12Z</time></trkpt><trkpt lat="44.28610404564219" lon="10.822381372628808"><ele>624.0</ele><time>2026-04-01T16:28:13Z</time></trkpt><trkpt lat="44.28615829033137" lon="10.822557013461516"><ele>624.0</ele><time>2026-04-01T16:28:14Z</time></trkpt><trkpt lat="44.286229826417355" lon="10.822707483639665"><ele>624.0</ele><time>2026-04-01T16:28:15Z</time></trkpt><trkpt lat="44.28628895210895" lon="10.822834910346822"><ele>624.0</ele><time>2026-04-01T16:28:16Z</time></trkpt><trkpt lat="44.28636870687459" lon="10.822940300776738"><ele>626.0</ele><time>2026-04-01T16:28:17Z</time></trkpt><trkpt lat="44.286464448145765" lon="10.823015614268186"><ele>628.0</ele><time>2026-04-01T16:28:18Z</time></trkpt><trkpt lat="44.28657506104081" lon="10.82305663260136"><ele>630.0</ele><time>2026-04-01T16:28:19Z</time></trkpt><trkpt lat="44.286696123764855" lon="10.823067872253205"><ele>632.0</ele><time>2026-04-01T16:28:20Z</time></trkpt><trkpt lat="44.28683629461017" lon="10.82303931859112"><ele>632.0</ele><time>2026-04-01T16:28:21Z</time></trkpt><trkpt lat="44.28697852484205" lon="10.822981635844023"><ele>632.0</ele><time>2026-04-01T16:28:22Z</time></trkpt><trkpt lat="44.28711750020712" lon="10.822896130360785"><ele>632.0</ele><time>2026-04-01T16:28:23Z</time></trkpt><trkpt lat="44.287240512431964" lon="10.822805040635595"><ele>632.0</ele><time>2026-04-01T16:28:24Z</time></trkpt><trkpt lat="44.28733672315811" lon="10.822725493315893"><ele>633.1666666666666</ele><time>2026-04-01T16:28:25Z</time></trkpt><trkpt lat="44.287414864140196" lon="10.822629113974832"><ele>634.3333333333333</ele><time>2026-04-01T16:28:26Z</time></trkpt><trkpt lat="44.287464553998426" lon="10.822535784771143"><ele>635.5</ele><time>2026-04-01T16:28:27Z</time></trkpt><trkpt lat="44.28751613933103" lon="10.822462636395674"><ele>636.6666666666666</ele><time>2026-04-01T16:28:28Z</time></trkpt><trkpt lat="44.287569058710474" lon="10.82241408900684"><ele>637.8333333333334</ele><time>2026-04-01T16:28:29Z</time></trkpt><trkpt lat="44.28763652653465" lon="10.822388755791827"><ele>639.0</ele><time>2026-04-01T16:28:30Z</time></trkpt><trkpt lat="44.28770881414949" lon="10.822442118459634"><ele>639.0</ele><time>2026-04-01T16:28:31Z</time></trkpt><trkpt lat="44.28776511180226" lon="10.822504302089504"><ele>639.0</ele><time>2026-04-01T16:28:32Z</time></trkpt><trkpt lat="44.28776601666133" lon="10.822627936868551"><ele>639.0</ele><time>2026-04-01T16:28:33Z</time></trkpt><trkpt lat="44.28777168889753" lon="10.82273726509306"><ele>639.0</ele><time>2026-04-01T16:28:34Z</time></trkpt><trkpt lat="44.28773118333524" lon="10.822867851296278"><ele>639.0</ele><time>2026-04-01T16:28:35Z</time></trkpt><trkpt lat="44.28769503419277" lon="10.822986538183368"><ele>639.0</ele><time>2026-04-01T16:28:35.999Z</time></trkpt><trkpt lat="44.28763287533366" lon="10.823105376873794"><ele>641.0</ele><time>2026-04-01T16:28:36.999Z</time></trkpt><trkpt lat="44.287577143376154" lon="10.823249778670638"><ele>643.0</ele><time>2026-04-01T16:28:37.999Z</time></trkpt><trkpt lat="44.287519922231716" lon="10.823376011947355"><ele>645.0</ele><time>2026-04-01T16:28:38.999Z</time></trkpt><trkpt lat="44.287504123511916" lon="10.823504382971931"><ele>647.0</ele><time>2026-04-01T16:28:39.999Z</time></trkpt><trkpt lat="44.28751637483068" lon="10.823642454355328"><ele>649.0</ele><time>2026-04-01T16:28:40.999Z</time></trkpt><trkpt lat="44.28755140619792" lon="10.823778562376726"><ele>649.8000000000001</ele><time>2026-04-01T16:28:41.999Z</time></trkpt><trkpt lat="44.28760665165934" lon="10.823889234188735"><ele>650.6</ele><time>2026-04-01T16:28:42.999Z</time></trkpt><trkpt lat="44.28766790592156" lon="10.82401063713959"><ele>651.4</ele><time>2026-04-01T16:28:43.999Z</time></trkpt><trkpt lat="44.28777931616065" lon="10.824068374028432"><ele>652.2</ele><time>2026-04-01T16:28:44.999Z</time></trkpt><trkpt lat="44.287895809886955" lon="10.824112470648375"><ele>653.0</ele><time>2026-04-01T16:28:45.999Z</time></trkpt><trkpt lat="44.288057384930624" lon="10.824206268204835"><ele>656.0</ele><time>2026-04-01T16:28:46.999Z</time></trkpt><trkpt lat="44.28819269604809" lon="10.824244533023869"><ele>659.0</ele><time>2026-04-01T16:28:47.999Z</time></trkpt><trkpt lat="44.28829053885634" lon="10.824204442275986"><ele>662.0</ele><time>2026-04-01T16:28:48.999Z</time></trkpt><trkpt lat="44.28838179120496" lon="10.824126019702897"><ele>665.0</ele><time>2026-04-01T16:28:49.999Z</time></trkpt><trkpt lat="44.28847533811845" lon="10.824051202723421"><ele>665.0</ele><time>2026-04-01T16:28:50.999Z</time></trkpt><trkpt lat="44.288558825013595" lon="10.824066247547613"><ele>665.0</ele><time>2026-04-01T16:28:51.999Z</time></trkpt><trkpt lat="44.288633782068864" lon="10.824183618950364"><ele>665.0</ele><time>2026-04-01T16:28:52.999Z</time></trkpt><trkpt lat="44.28871307920394" lon="10.824302499933326"><ele>665.0</ele><time>2026-04-01T16:28:53.999Z</time></trkpt><trkpt lat="44.28882249132989" lon="10.824460097274589"><ele>664.0</ele><time>2026-04-01T16:28:54.999Z</time></trkpt><trkpt lat="44.28892459376459" lon="10.824644822632399"><ele>663.0</ele><time>2026-04-01T16:28:55.999Z</time></trkpt><trkpt lat="44.288996334477844" lon="10.824838021702087"><ele>662.0</ele><time>2026-04-01T16:28:56.999Z</time></trkpt><trkpt lat="44.2890436512723" lon="10.825041384321844"><ele>664.8</ele><time>2026-04-01T16:28:57.999Z</time></trkpt><trkpt lat="44.289088777285485" lon="10.825232621492074"><ele>667.6</ele><time>2026-04-01T16:28:58.999Z</time></trkpt><trkpt lat="44.28913112129741" lon="10.825396404411903"><ele>670.4</ele><time>2026-04-01T16:28:59.999Z</time></trkpt><trkpt lat="44.2891896943276" lon="10.825516548739216"><ele>673.1999999999999</ele><time>2026-04-01T16:29:00.999Z</time></trkpt><trkpt lat="44.28922885098734" lon="10.825596522668842"><ele>676.0</ele><time>2026-04-01T16:29:01.999Z</time></trkpt><trkpt lat="44.28934902550286" lon="10.825599603562834"><ele>676.0</ele><time>2026-04-01T16:29:03.999Z</time></trkpt><trkpt lat="44.289375253980694" lon="10.825332214850192"><ele>676.0</ele><time>2026-04-01T16:29:05.999Z</time></trkpt><trkpt lat="44.28937247835937" lon="10.82515899291599"><ele>676.0</ele><time>2026-04-01T16:29:06.999Z</time></trkpt><trkpt lat="44.28940327726188" lon="10.824990017770473"><ele>676.0</ele><time>2026-04-01T16:29:07.999Z</time></trkpt><trkpt lat="44.289499792100976" lon="10.824897212359687"><ele>677.75</ele><time>2026-04-01T16:29:08.999Z</time></trkpt><trkpt lat="44.289618026712006" lon="10.82485151926309"><ele>679.5</ele><time>2026-04-01T16:29:09.999Z</time></trkpt><trkpt lat="44.28974599909347" lon="10.824769580001247"><ele>681.25</ele><time>2026-04-01T16:29:10.999Z</time></trkpt><trkpt lat="44.28991405457113" lon="10.824695005197002"><ele>683.0</ele><time>2026-04-01T16:29:11.999Z</time></trkpt><trkpt lat="44.29009090448372" lon="10.824606727809929"><ele>686.75</ele><time>2026-04-01T16:29:12.999Z</time></trkpt><trkpt lat="44.29022142173843" lon="10.82455201914639"><ele>690.5</ele><time>2026-04-01T16:29:13.999Z</time></trkpt><trkpt lat="44.29033751401514" lon="10.824513966931887"><ele>694.25</ele><time>2026-04-01T16:29:14.999Z</time></trkpt><trkpt lat="44.29046653717433" lon="10.824504934255234"><ele>698.0</ele><time>2026-04-01T16:29:15.999Z</time></trkpt><trkpt lat="44.290587397307604" lon="10.824528417632408"><ele>698.0</ele><time>2026-04-01T16:29:16.999Z</time></trkpt><trkpt lat="44.29067694956684" lon="10.824552728662377"><ele>698.0</ele><time>2026-04-01T16:29:17.999Z</time></trkpt><trkpt lat="44.29076445747052" lon="10.824625559845835"><ele>698.0</ele><time>2026-04-01T16:29:19.999Z</time></trkpt><trkpt lat="44.290688316011995" lon="10.824726194260807"><ele>698.0</ele><time>2026-04-01T16:29:21.999Z</time></trkpt><trkpt lat="44.29061614283553" lon="10.82475091981828"><ele>698.0</ele><time>2026-04-01T16:29:22.999Z</time></trkpt><trkpt lat="44.29052264656763" lon="10.824768250552319"><ele>698.0</ele><time>2026-04-01T16:29:23.999Z</time></trkpt><trkpt lat="44.290424808210865" lon="10.824804565111867"><ele>698.0</ele><time>2026-04-01T16:29:24.999Z</time></trkpt><trkpt lat="44.29035292485137" lon="10.824862730782858"><ele>698.0</ele><time>2026-04-01T16:29:25.999Z</time></trkpt><trkpt lat="44.29031418910842" lon="10.824964066165768"><ele>698.0</ele><time>2026-04-01T16:29:26.999Z</time></trkpt><trkpt lat="44.29031492247646" lon="10.825094481702468"><ele>698.0</ele><time>2026-04-01T16:29:27.999Z</time></trkpt><trkpt lat="44.290373350841776" lon="10.825202870918673"><ele>696.5</ele><time>2026-04-01T16:29:28.999Z</time></trkpt><trkpt lat="44.29046448425717" lon="10.825312102863503"><ele>695.0</ele><time>2026-04-01T16:29:29.999Z</time></trkpt><trkpt lat="44.290569414030635" lon="10.82543932212103"><ele>693.5</ele><time>2026-04-01T16:29:30.999Z</time></trkpt><trkpt lat="44.2906895156794" lon="10.825600727598909"><ele>692.0</ele><time>2026-04-01T16:29:31.999Z</time></trkpt><trkpt lat="44.29083064121974" lon="10.825788335374172"><ele>698.3333333333333</ele><time>2026-04-01T16:29:32.999Z</time></trkpt><trkpt lat="44.29097768432917" lon="10.825975568591328"><ele>704.6666666666666</ele><time>2026-04-01T16:29:33.999Z</time></trkpt><trkpt lat="44.291108033671236" lon="10.826146202142027"><ele>711.0</ele><time>2026-04-01T16:29:34.999Z</time></trkpt><trkpt lat="44.29120656929647" lon="10.82628524445112"><ele>711.0</ele><time>2026-04-01T16:29:35.999Z</time></trkpt><trkpt lat="44.29128608858315" lon="10.826467679658386"><ele>711.0</ele><time>2026-04-01T16:29:36.999Z</time></trkpt><trkpt lat="44.29136580030113" lon="10.826671918391616"><ele>711.0</ele><time>2026-04-01T16:29:37.999Z</time></trkpt><trkpt lat="44.2914490007664" lon="10.826899132852192"><ele>716.75</ele><time>2026-04-01T16:29:38.999Z</time></trkpt><trkpt lat="44.291538118715515" lon="10.827097547115589"><ele>722.5</ele><time>2026-04-01T16:29:39.999Z</time></trkpt><trkpt lat="44.29158630574976" lon="10.827278770971601"><ele>728.25</ele><time>2026-04-01T16:29:40.999Z</time></trkpt><trkpt lat="44.29163581212552" lon="10.82741701041546"><ele>734.0</ele><time>2026-04-01T16:29:41.999Z</time></trkpt><trkpt lat="44.291674185149816" lon="10.82752230672295"><ele>734.0</ele><time>2026-04-01T16:29:42.999Z</time></trkpt><trkpt lat="44.29170577707333" lon="10.827604925801772"><ele>734.0</ele><time>2026-04-01T16:29:43.999Z</time></trkpt><trkpt lat="44.29176926326443" lon="10.827684219727852"><ele>734.0</ele><time>2026-04-01T16:29:45.999Z</time></trkpt><trkpt lat="44.291839661215114" lon="10.827745509316287"><ele>734.0</ele><time>2026-04-01T16:29:47.998Z</time></trkpt><trkpt lat="44.29176443952099" lon="10.82760211802647"><ele>734.0</ele><time>2026-04-01T16:29:51.998Z</time></trkpt><trkpt lat="44.29169030216981" lon="10.82750598814039"><ele>734.0</ele><time>2026-04-01T16:29:53.998Z</time></trkpt><trkpt lat="44.29164126434231" lon="10.827324171014777"><ele>734.0</ele><time>2026-04-01T16:29:55.998Z</time></trkpt><trkpt lat="44.29159510135208" lon="10.82717763785023"><ele>734.0</ele><time>2026-04-01T16:29:56.998Z</time></trkpt><trkpt lat="44.291545766043456" lon="10.827050699256938"><ele>734.0</ele><time>2026-04-01T16:29:57.998Z</time></trkpt><trkpt lat="44.291499003339" lon="10.826922389612983"><ele>734.1666666666666</ele><time>2026-04-01T16:29:58.998Z</time></trkpt><trkpt lat="44.29145863393539" lon="10.826804612222892"><ele>734.3333333333333</ele><time>2026-04-01T16:29:59.998Z</time></trkpt><trkpt lat="44.29142374645267" lon="10.826704592057075"><ele>734.5</ele><time>2026-04-01T16:30:00.998Z</time></trkpt><trkpt lat="44.29139417295967" lon="10.826618691514943"><ele>734.6666666666666</ele><time>2026-04-01T16:30:01.998Z</time></trkpt><trkpt lat="44.291337316168956" lon="10.826509708569594"><ele>734.8333333333334</ele><time>2026-04-01T16:30:03.998Z</time></trkpt><trkpt lat="44.291270931185906" lon="10.826504094301365"><ele>735.0</ele><time>2026-04-01T16:30:06.998Z</time></trkpt><trkpt lat="44.29134609508753" lon="10.826585397912382"><ele>734.8333333333334</ele><time>2026-04-01T16:30:34Z</time></trkpt><trkpt lat="44.291405291999645" lon="10.826732920809093"><ele>734.6666666666666</ele><time>2026-04-01T16:30:35Z</time></trkpt><trkpt lat="44.291445984087396" lon="10.826842474856678"><ele>734.5</ele><time>2026-04-01T16:30:36Z</time></trkpt><trkpt lat="44.29147897353476" lon="10.826939842029917"><ele>734.3333333333333</ele><time>2026-04-01T16:30:37Z</time></trkpt><trkpt lat="44.291510724141375" lon="10.827025946527908"><ele>734.1666666666666</ele><time>2026-04-01T16:30:38Z</time></trkpt><trkpt lat="44.291542867881276" lon="10.827107329057148"><ele>734.0</ele><time>2026-04-01T16:30:38.999Z</time></trkpt><trkpt lat="44.29156679381002" lon="10.827223500518047"><ele>734.0</ele><time>2026-04-01T16:30:39.999Z</time></trkpt><trkpt lat="44.29161357548942" lon="10.827355992673622"><ele>734.0</ele><time>2026-04-01T16:30:40.999Z</time></trkpt><trkpt lat="44.29167010019843" lon="10.827511097546317"><ele>734.0</ele><time>2026-04-01T16:30:41.999Z</time></trkpt><trkpt lat="44.29171552773618" lon="10.827627022101675"><ele>734.0</ele><time>2026-04-01T16:30:42.999Z</time></trkpt><trkpt lat="44.29180549153561" lon="10.827742083487223"><ele>734.0</ele><time>2026-04-01T16:30:44.999Z</time></trkpt><trkpt lat="44.29188633376818" lon="10.827719236930603"><ele>734.0</ele><time>2026-04-01T16:30:45.999Z</time></trkpt><trkpt lat="44.29195490389229" lon="10.827660461565914"><ele>734.0</ele><time>2026-04-01T16:30:46.999Z</time></trkpt><trkpt lat="44.29202096351812" lon="10.827547316356513"><ele>734.0</ele><time>2026-04-01T16:30:47.999Z</time></trkpt><trkpt lat="44.29208372165204" lon="10.827399911408492"><ele>734.0</ele><time>2026-04-01T16:30:48.999Z</time></trkpt><trkpt lat="44.29215101996543" lon="10.827227985148712"><ele>734.0</ele><time>2026-04-01T16:30:49.999Z</time></trkpt><trkpt lat="44.29222678194837" lon="10.827058258425977"><ele>737.4000000000001</ele><time>2026-04-01T16:30:50.999Z</time></trkpt><trkpt lat="44.292286665413805" lon="10.826879960390265"><ele>740.8</ele><time>2026-04-01T16:30:51.999Z</time></trkpt><trkpt lat="44.29231835190682" lon="10.826734303678881"><ele>744.2</ele><time>2026-04-01T16:30:52.999Z</time></trkpt><trkpt lat="44.29235000271305" lon="10.826624087513622"><ele>747.5999999999999</ele><time>2026-04-01T16:30:53.999Z</time></trkpt><trkpt lat="44.29239787470179" lon="10.826542742521918"><ele>751.0</ele><time>2026-04-01T16:30:54.999Z</time></trkpt><trkpt lat="44.292463633447035" lon="10.826508247173047"><ele>751.0</ele><time>2026-04-01T16:30:55.999Z</time></trkpt><trkpt lat="44.29253584900678" lon="10.82652484047504"><ele>751.0</ele><time>2026-04-01T16:30:56.999Z</time></trkpt><trkpt lat="44.29262035896704" lon="10.826613513998591"><ele>751.0</ele><time>2026-04-01T16:30:57.999Z</time></trkpt><trkpt lat="44.29272454517774" lon="10.826640271881452"><ele>751.0</ele><time>2026-04-01T16:30:58.999Z</time></trkpt><trkpt lat="44.292838236335754" lon="10.82664293711925"><ele>751.0</ele><time>2026-04-01T16:30:59.999Z</time></trkpt><trkpt lat="44.29296750803749" lon="10.826571115944967"><ele>758.3333333333334</ele><time>2026-04-01T16:31:00.999Z</time></trkpt><trkpt lat="44.293102773458735" lon="10.826474235350425"><ele>765.6666666666667</ele><time>2026-04-01T16:31:01.999Z</time></trkpt><trkpt lat="44.2932637152915" lon="10.826394955470077"><ele>773.0</ele><time>2026-04-01T16:31:02.999Z</time></trkpt><trkpt lat="44.29344125469583" lon="10.826349767886404"><ele>773.0</ele><time>2026-04-01T16:31:03.999Z</time></trkpt><trkpt lat="44.29361726821996" lon="10.826324937913816"><ele>773.0</ele><time>2026-04-01T16:31:04.999Z</time></trkpt><trkpt lat="44.293775073628005" lon="10.826289009350212"><ele>773.0</ele><time>2026-04-01T16:31:05.999Z</time></trkpt><trkpt lat="44.293904460761595" lon="10.826242624936764"><ele>772.0</ele><time>2026-04-01T16:31:06.999Z</time></trkpt><trkpt lat="44.29403057626885" lon="10.826167787765762"><ele>771.0</ele><time>2026-04-01T16:31:07.999Z</time></trkpt><trkpt lat="44.294145510318586" lon="10.826066043929075"><ele>770.0</ele><time>2026-04-01T16:31:08.999Z</time></trkpt><trkpt lat="44.2942380192933" lon="10.82597616499891"><ele>769.0</ele><time>2026-04-01T16:31:09.999Z</time></trkpt><trkpt lat="44.294342489583094" lon="10.825907404694545"><ele>769.0</ele><time>2026-04-01T16:31:10.999Z</time></trkpt><trkpt lat="44.29447735975246" lon="10.825861014158177"><ele>769.0</ele><time>2026-04-01T16:31:11.999Z</time></trkpt><trkpt lat="44.29464102393396" lon="10.825838238191407"><ele>769.0</ele><time>2026-04-01T16:31:12.999Z</time></trkpt><trkpt lat="44.29480966475818" lon="10.825801754145727"><ele>770.4000000000001</ele><time>2026-04-01T16:31:13.999Z</time></trkpt><trkpt lat="44.294937101643654" lon="10.825773087598574"><ele>771.8</ele><time>2026-04-01T16:31:14.999Z</time></trkpt><trkpt lat="44.29503793076547" lon="10.825758498988279"><ele>773.2</ele><time>2026-04-01T16:31:15.999Z</time></trkpt><trkpt lat="44.29511991192448" lon="10.825799019807276"><ele>774.5999999999999</ele><time>2026-04-01T16:31:16.999Z</time></trkpt><trkpt lat="44.29516186433534" lon="10.825923598400403"><ele>776.0</ele><time>2026-04-01T16:31:17.999Z</time></trkpt><trkpt lat="44.29518402834621" lon="10.82606423204237"><ele>780.4</ele><time>2026-04-01T16:31:18.999Z</time></trkpt><trkpt lat="44.29519717376455" lon="10.82618620692422"><ele>784.8</ele><time>2026-04-01T16:31:19.999Z</time></trkpt><trkpt lat="44.29516732905307" lon="10.826278304364962"><ele>789.1999999999999</ele><time>2026-04-01T16:31:20.999Z</time></trkpt><trkpt lat="44.29509379098337" lon="10.826337172123162"><ele>793.5999999999999</ele><time>2026-04-01T16:31:21.999Z</time></trkpt><trkpt lat="44.29499694149275" lon="10.826371086088306"><ele>798.0</ele><time>2026-04-01T16:31:22.999Z</time></trkpt><trkpt lat="44.294885209118846" lon="10.826437062459998"><ele>794.6666666666667</ele><time>2026-04-01T16:31:23.999Z</time></trkpt><trkpt lat="44.29474821028831" lon="10.826549271380628"><ele>791.3333333333334</ele><time>2026-04-01T16:31:24.999Z</time></trkpt><trkpt lat="44.29459246804232" lon="10.82665123449713"><ele>788.0</ele><time>2026-04-01T16:31:25.999Z</time></trkpt><trkpt lat="44.294467412298324" lon="10.82670913508006"><ele>788.0</ele><time>2026-04-01T16:31:26.999Z</time></trkpt><trkpt lat="44.29434982697416" lon="10.826708568538223"><ele>788.0</ele><time>2026-04-01T16:31:27.999Z</time></trkpt><trkpt lat="44.2942614185846" lon="10.826740164004791"><ele>788.0</ele><time>2026-04-01T16:31:28.999Z</time></trkpt><trkpt lat="44.2941985238707" lon="10.82676473762578"><ele>788.0</ele><time>2026-04-01T16:31:29.999Z</time></trkpt><trkpt lat="44.294174706260236" lon="10.826934247413353"><ele>788.0</ele><time>2026-04-01T16:31:31.999Z</time></trkpt><trkpt lat="44.29424957706364" lon="10.827012546275563"><ele>791.2</ele><time>2026-04-01T16:31:32.999Z</time></trkpt><trkpt lat="44.294345567621534" lon="10.826988214359643"><ele>794.4</ele><time>2026-04-01T16:31:33.999Z</time></trkpt><trkpt lat="44.294433845637634" lon="10.826958584231072"><ele>797.6</ele><time>2026-04-01T16:31:34.999Z</time></trkpt><trkpt lat="44.29454542229303" lon="10.826932827039858"><ele>800.8000000000001</ele><time>2026-04-01T16:31:35.999Z</time></trkpt><trkpt lat="44.29467694693757" lon="10.826912469509356"><ele>804.0</ele><time>2026-04-01T16:31:36.999Z</time></trkpt><trkpt lat="44.29481054226148" lon="10.826897571724404"><ele>811.0</ele><time>2026-04-01T16:31:37.999Z</time></trkpt><trkpt lat="44.29495661917344" lon="10.826907389527626"><ele>818.0</ele><time>2026-04-01T16:31:38.999Z</time></trkpt><trkpt lat="44.295122894801004" lon="10.82693215074541"><ele>825.0</ele><time>2026-04-01T16:31:39.999Z</time></trkpt><trkpt lat="44.29528857220295" lon="10.826965183504667"><ele>825.0</ele><time>2026-04-01T16:31:40.999Z</time></trkpt><trkpt lat="44.295445502575426" lon="10.826967175509626"><ele>825.0</ele><time>2026-04-01T16:31:41.999Z</time></trkpt><trkpt lat="44.29558910596373" lon="10.826920436397375"><ele>825.0</ele><time>2026-04-01T16:31:42.999Z</time></trkpt><trkpt lat="44.29573922725735" lon="10.826871421327752"><ele>826.0</ele><time>2026-04-01T16:31:43.999Z</time></trkpt><trkpt lat="44.295875254221365" lon="10.826846371429935"><ele>827.0</ele><time>2026-04-01T16:31:44.999Z</time></trkpt><trkpt lat="44.29601959207893" lon="10.826839025960432"><ele>828.0</ele><time>2026-04-01T16:31:45.999Z</time></trkpt><trkpt lat="44.29613778280717" lon="10.826860618133038"><ele>829.0</ele><time>2026-04-01T16:31:46.999Z</time></trkpt><trkpt lat="44.296240717788415" lon="10.826917159189676"><ele>829.0</ele><time>2026-04-01T16:31:47.999Z</time></trkpt><trkpt lat="44.296357495502896" lon="10.826969570248197"><ele>829.0</ele><time>2026-04-01T16:31:48.998Z</time></trkpt><trkpt lat="44.29649731885808" lon="10.827019726959236"><ele>829.0</ele><time>2026-04-01T16:31:49.998Z</time></trkpt><trkpt lat="44.29661927740012" lon="10.827087697791717"><ele>829.0</ele><time>2026-04-01T16:31:50.998Z</time></trkpt><trkpt lat="44.29671837952251" lon="10.827129953464128"><ele>829.25</ele><time>2026-04-01T16:31:51.998Z</time></trkpt><trkpt lat="44.29681796729363" lon="10.827187928165086"><ele>829.5</ele><time>2026-04-01T16:31:52.998Z</time></trkpt><trkpt lat="44.29692139246443" lon="10.82726131872885"><ele>829.75</ele><time>2026-04-01T16:31:53.998Z</time></trkpt><trkpt lat="44.29702957346119" lon="10.827350522914244"><ele>830.0</ele><time>2026-04-01T16:31:54.998Z</time></trkpt><trkpt lat="44.29713051054294" lon="10.827435908999206"><ele>830.0</ele><time>2026-04-01T16:31:55.998Z</time></trkpt><trkpt lat="44.29723781034797" lon="10.82747112594626"><ele>830.0</ele><time>2026-04-01T16:31:56.998Z</time></trkpt><trkpt lat="44.297347452385424" lon="10.827471382111433"><ele>830.0</ele><time>2026-04-01T16:31:57.998Z</time></trkpt><trkpt lat="44.29743024131212" lon="10.82746573910955"><ele>830.0</ele><time>2026-04-01T16:31:58.998Z</time></trkpt><trkpt lat="44.297500297122006" lon="10.827492854882253"><ele>830.0</ele><time>2026-04-01T16:31:59.998Z</time></trkpt><trkpt lat="44.29758886928692" lon="10.827642787993708"><ele>830.8</ele><time>2026-04-01T16:32:01.998Z</time></trkpt><trkpt lat="44.29764471880749" lon="10.827761054993323"><ele>831.6</ele><time>2026-04-01T16:32:02.998Z</time></trkpt><trkpt lat="44.29770154361674" lon="10.8278658835153"><ele>832.4000000000001</ele><time>2026-04-01T16:32:03.998Z</time></trkpt><trkpt lat="44.29776814208902" lon="10.827929875833593"><ele>833.2</ele><time>2026-04-01T16:32:04.998Z</time></trkpt><trkpt lat="44.2978521165959" lon="10.827932243233109"><ele>834.0</ele><time>2026-04-01T16:32:05.998Z</time></trkpt><trkpt lat="44.29795225546021" lon="10.82790522911292"><ele>834.0</ele><time>2026-04-01T16:32:06.998Z</time></trkpt><trkpt lat="44.29805380860993" lon="10.827868057577797"><ele>834.0</ele><time>2026-04-01T16:32:07.998Z</time></trkpt><trkpt lat="44.29813176319062" lon="10.82784689817455"><ele>834.0</ele><time>2026-04-01T16:32:08.998Z</time></trkpt><trkpt lat="44.29819459118603" lon="10.827839452081987"><ele>834.0</ele><time>2026-04-01T16:32:09.998Z</time></trkpt><trkpt lat="44.298259602967214" lon="10.827853041084044"><ele>834.0</ele><time>2026-04-01T16:32:11.998Z</time></trkpt><trkpt lat="44.29827461913545" lon="10.827947091420231"><ele>834.0</ele><time>2026-04-01T16:32:18Z</time></trkpt><trkpt lat="44.298179905600676" lon="10.828100945528998"><ele>834.0</ele><time>2026-04-01T16:32:19Z</time></trkpt><trkpt lat="44.29814337518067" lon="10.828208985422528"><ele>834.0</ele><time>2026-04-01T16:32:20Z</time></trkpt><trkpt lat="44.298099581204035" lon="10.828341393869255"><ele>834.0</ele><time>2026-04-01T16:32:21Z</time></trkpt><trkpt lat="44.29806851564404" lon="10.828473605440092"><ele>834.0</ele><time>2026-04-01T16:32:22Z</time></trkpt><trkpt lat="44.29801582465641" lon="10.828586717496552"><ele>834.0</ele><time>2026-04-01T16:32:23Z</time></trkpt><trkpt lat="44.29796167931813" lon="10.828685641530305"><ele>835.8000000000001</ele><time>2026-04-01T16:32:24Z</time></trkpt><trkpt lat="44.29790047453813" lon="10.828784172097675"><ele>837.6</ele><time>2026-04-01T16:32:25Z</time></trkpt><trkpt lat="44.29783561761563" lon="10.828872953224323"><ele>839.4</ele><time>2026-04-01T16:32:26Z</time></trkpt><trkpt lat="44.29777531859096" lon="10.82895230706766"><ele>841.2</ele><time>2026-04-01T16:32:27Z</time></trkpt><trkpt lat="44.29770527419571" lon="10.829039062657857"><ele>843.0</ele><time>2026-04-01T16:32:28Z</time></trkpt><trkpt lat="44.29763184116743" lon="10.829118015347042"><ele>843.0</ele><time>2026-04-01T16:32:29Z</time></trkpt><trkpt lat="44.29755049131731" lon="10.829179946686383"><ele>843.0</ele><time>2026-04-01T16:32:30Z</time></trkpt><trkpt lat="44.29748480613687" lon="10.829231328437183"><ele>843.0</ele><time>2026-04-01T16:32:31Z</time></trkpt><trkpt lat="44.29738449763833" lon="10.82923249845039"><ele>843.0</ele><time>2026-04-01T16:32:33Z</time></trkpt><trkpt lat="44.29734648030607" lon="10.82914840400625"><ele>843.0</ele><time>2026-04-01T16:32:34Z</time></trkpt><trkpt lat="44.29727818652953" lon="10.82908196902103"><ele>843.0</ele><time>2026-04-01T16:32:35Z</time></trkpt><trkpt lat="44.29719670275712" lon="10.829012776115043"><ele>842.6666666666666</ele><time>2026-04-01T16:32:36Z</time></trkpt><trkpt lat="44.29713260654624" lon="10.828926836225818"><ele>842.3333333333333</ele><time>2026-04-01T16:32:36.999Z</time></trkpt><trkpt lat="44.2970703036886" lon="10.828850969025243"><ele>842.0</ele><time>2026-04-01T16:32:37.999Z</time></trkpt><trkpt lat="44.29702343693156" lon="10.828787796902406"><ele>841.6666666666666</ele><time>2026-04-01T16:32:38.999Z</time></trkpt><trkpt lat="44.296956190745064" lon="10.82875668789607"><ele>841.3333333333333</ele><time>2026-04-01T16:32:39.999Z</time></trkpt><trkpt lat="44.29688728501351" lon="10.82869768330245"><ele>841.0</ele><time>2026-04-01T16:32:41.999Z</time></trkpt><trkpt lat="44.29696690064" lon="10.828468932174665"><ele>841.0</ele><time>2026-04-01T16:32:48.999Z</time></trkpt><trkpt lat="44.29696559046984" lon="10.828349856727385"><ele>841.0</ele><time>2026-04-01T16:32:51.999Z</time></trkpt></trkseg></trk></gpx>